Time,TemperatureF,DewpointF,PressureIn,WindDirection,WindDirectionDegrees,WindSpeedMPH,WindSpeedGustMPH,Humidity,HourlyPrecipIn,Conditions,Clouds,dailyrainin,SoftwareType,DateUTC
2013-10-29 00:00:00,40.5,27.7,30.39,ENE,76,0.0,0.0,60,0.00,CLR,,0.00,WeatherDisplay:10.37,2013-10-29 04:00:00,
2013-10-29 00:01:00,40.5,27.7,30.39,ENE,76,0.0,0.0,60,0.00,CLR,,0.00,WeatherDisplay:10.37,2013-10-29 04:01:00,
2013-10-29 00:02:00,40.5,27.7,30.39,ENE,76,0.0,0.0,60,0.00,CLR,,0.00,WeatherDisplay:10.37,2013-10-29 04:02:00,
2013-10-29 00:06:00,40.5,27.7,30.39,ENE,76,0.0,0.0,60,0.00,CLR,,0.00,WeatherDisplay:10.37,2013-10-29 04:06:00,
2013-10-29 00:07:00,40.5,27.7,30.39,ENE,76,0.0,0.0,60,0.00,CLR,,0.00,WeatherDisplay:10.37,2013-10-29 04:07:00,
2013-10-29 00:08:00,40.5,27.7,30.39,ENE,76,0.0,0.0,60,0.00,CLR,,0.00,WeatherDisplay:10.37,2013-10-29 04:08:00,
2013-10-29 00:11:00,40.3,27.5,30.40,ENE,76,0.0,0.0,60,0.00,CLR,,0.00,WeatherDisplay:10.37,2013-10-29 04:11:00,
2013-10-29 00:12:00,40.3,27.5,30.40,ENE,76,0.0,0.0,60,0.00,CLR,,0.00,WeatherDisplay:10.37,2013-10-29 04:12:00,
2013-10-29 00:13:00,40.3,27.9,30.40,ENE,76,0.0,0.0,61,0.00,CLR,,0.00,WeatherDisplay:10.37,2013-10-29 04:13:00,
2013-10-29 00:14:00,40.3,27.9,30.40,ENE,76,0.0,0.0,61,0.00,CLR,,0.00,WeatherDisplay:10.37,2013-10-29 04:14:00,
2013-10-29 00:17:00,40.3,27.9,30.40,ENE,76,0.0,0.0,61,0.00,CLR,,0.00,WeatherDisplay:10.37,2013-10-29 04:17:00,
2013-10-29 00:18:00,40.3,27.9,30.40,ENE,76,0.0,0.0,61,0.00,CLR,,0.00,WeatherDisplay:10.37,2013-10-29 04:18:00,
2013-10-29 00:19:00,40.3,27.9,30.40,ENE,76,0.0,0.0,61,0.00,CLR,,0.00,WeatherDisplay:10.37,2013-10-29 04:19:00,
2013-10-29 00:20:00,40.3,27.9,30.40,ENE,76,0.0,0.0,61,0.00,CLR,,0.00,WeatherDisplay:10.37,2013-10-29 04:20:00,
2013-10-29 00:23:00,40.2,27.8,30.39,ENE,76,0.0,0.0,61,0.00,CLR,,0.00,WeatherDisplay:10.37,2013-10-29 04:23:00,
2013-10-29 00:24:00,40.2,27.8,30.39,ENE,76,0.0,0.0,61,0.00,CLR,,0.00,WeatherDisplay:10.37,2013-10-29 04:24:00,
2013-10-29 00:25:00,40.2,28.2,30.39,ENE,76,0.0,0.0,62,0.00,CLR,,0.00,WeatherDisplay:10.37,2013-10-29 04:25:00,
2013-10-29 00:28:00,40.2,27.8,30.39,ENE,76,0.0,0.0,61,0.00,CLR,,0.00,WeatherDisplay:10.37,2013-10-29 04:28:00,
2013-10-29 00:29:00,40.2,28.2,30.39,ENE,76,0.0,0.0,62,0.00,CLR,,0.00,WeatherDisplay:10.37,2013-10-29 04:29:00,
2013-10-29 00:30:00,40.2,28.2,30.39,ENE,76,0.0,0.0,62,0.00,CLR,,0.00,WeatherDisplay:10.37,2013-10-29 04:30:00,
2013-10-29 00:32:00,40.2,28.2,30.39,ENE,76,0.0,0.0,62,0.00,CLR,,0.00,WeatherDisplay:10.37,2013-10-29 04:32:00,
2013-10-29 00:34:00,40.2,28.6,30.39,ENE,76,0.0,0.0,63,0.00,CLR,,0.00,WeatherDisplay:10.37,2013-10-29 04:34:00,
2013-10-29 00:35:00,40.2,29.0,30.39,ENE,76,0.0,0.0,64,0.00,CLR,,0.00,WeatherDisplay:10.37,2013-10-29 04:35:00,
2013-10-29 00:36:00,40.2,29.0,30.39,ENE,76,0.0,0.0,64,0.00,CLR,,0.00,WeatherDisplay:10.37,2013-10-29 04:36:00,
2013-10-29 00:37:00,40.1,28.9,30.39,ENE,76,0.0,0.0,64,0.00,CLR,,0.00,WeatherDisplay:10.37,2013-10-29 04:37:00,
2013-10-29 00:39:00,40.1,29.3,30.39,ENE,76,0.0,0.0,65,0.00,CLR,,0.00,WeatherDisplay:10.37,2013-10-29 04:39:00,
2013-10-29 00:40:00,40.1,29.3,30.39,ENE,76,0.0,0.0,65,0.00,CLR,,0.00,WeatherDisplay:10.37,2013-10-29 04:40:00,
2013-10-29 00:41:00,40.1,29.3,30.39,ENE,76,0.0,0.0,65,0.00,CLR,,0.00,WeatherDisplay:10.37,2013-10-29 04:41:00,
2013-10-29 00:42:00,40.1,29.6,30.39,ENE,76,0.0,0.0,66,0.00,CLR,,0.00,WeatherDisplay:10.37,2013-10-29 04:42:00,
2013-10-29 00:43:00,40.1,29.3,30.39,ENE,76,0.0,0.0,65,0.00,CLR,,0.00,WeatherDisplay:10.37,2013-10-29 04:43:00,
2013-10-29 00:44:00,40.1,29.3,30.39,ENE,76,0.0,0.0,65,0.00,CLR,,0.00,WeatherDisplay:10.37,2013-10-29 04:44:00,
2013-10-29 00:45:00,40.1,29.3,30.39,ENE,76,0.0,0.0,65,0.00,CLR,,0.00,WeatherDisplay:10.37,2013-10-29 04:45:00,
2013-10-29 00:46:00,40.1,29.6,30.39,ENE,76,0.0,0.0,66,0.00,CLR,,0.00,WeatherDisplay:10.37,2013-10-29 04:46:00,
2013-10-29 00:47:00,40.1,29.6,30.39,ENE,76,0.0,0.0,66,0.00,CLR,,0.00,WeatherDisplay:10.37,2013-10-29 04:47:00,
2013-10-29 00:48:00,40.1,29.6,30.39,ENE,76,0.0,0.0,66,0.00,CLR,,0.00,WeatherDisplay:10.37,2013-10-29 04:48:00,
2013-10-29 00:50:00,39.9,29.5,30.40,ENE,76,0.0,0.0,66,0.00,CLR,,0.00,WeatherDisplay:10.37,2013-10-29 04:50:00,
2013-10-29 00:52:00,39.9,29.8,30.40,ENE,76,0.0,0.0,67,0.00,CLR,,0.00,WeatherDisplay:10.37,2013-10-29 04:52:00,
2013-10-29 00:53:00,39.9,30.2,30.40,ENE,76,0.0,0.0,68,0.00,CLR,,0.00,WeatherDisplay:10.37,2013-10-29 04:53:00,
2013-10-29 00:55:00,40.1,30.7,30.40,ENE,76,0.0,0.0,69,0.00,CLR,,0.00,WeatherDisplay:10.37,2013-10-29 04:55:00,
2013-10-29 00:56:00,40.1,30.7,30.40,ENE,76,0.0,0.0,69,0.00,CLR,,0.00,WeatherDisplay:10.37,2013-10-29 04:56:00,
2013-10-29 00:58:00,40.1,30.7,30.40,ENE,76,0.0,0.0,69,0.00,CLR,,0.00,WeatherDisplay:10.37,2013-10-29 04:58:00,
2013-10-29 01:01:00,40.1,30.7,30.40,ENE,76,0.0,0.0,69,0.00,CLR,,0.00,WeatherDisplay:10.37,2013-10-29 05:01:00,
2013-10-29 01:03:00,39.9,30.2,30.40,ENE,76,0.0,0.0,68,0.00,CLR,,0.00,WeatherDisplay:10.37,2013-10-29 05:03:00,
2013-10-29 01:04:00,39.9,30.2,30.40,ENE,76,0.0,0.0,68,0.00,CLR,,0.00,WeatherDisplay:10.37,2013-10-29 05:04:00,
2013-10-29 01:05:00,39.9,30.2,30.40,ENE,76,0.0,0.0,68,0.00,CLR,,0.00,WeatherDisplay:10.37,2013-10-29 05:05:00,
2013-10-29 01:07:00,39.8,30.1,30.40,ENE,76,0.0,0.0,68,0.00,CLR,,0.00,WeatherDisplay:10.37,2013-10-29 05:07:00,
2013-10-29 01:08:00,39.8,30.1,30.40,ENE,76,0.0,0.0,68,0.00,CLR,,0.00,WeatherDisplay:10.37,2013-10-29 05:08:00,
2013-10-29 01:09:00,39.8,30.1,30.40,ENE,76,0.0,0.0,68,0.00,CLR,,0.00,WeatherDisplay:10.37,2013-10-29 05:09:00,
2013-10-29 01:10:00,39.8,30.5,30.40,ENE,76,0.0,0.0,69,0.00,CLR,,0.00,WeatherDisplay:10.37,2013-10-29 05:10:00,
2013-10-29 01:12:00,39.6,29.9,30.40,ENE,76,0.0,0.0,68,0.00,CLR,,0.00,WeatherDisplay:10.37,2013-10-29 05:12:00,
2013-10-29 01:14:00,39.5,29.8,30.40,ENE,76,0.0,0.0,68,0.00,CLR,,0.00,WeatherDisplay:10.37,2013-10-29 05:14:00,
2013-10-29 01:16:00,39.5,29.8,30.40,ENE,76,0.0,0.0,68,0.00,CLR,,0.00,WeatherDisplay:10.37,2013-10-29 05:16:00,
2013-10-29 01:17:00,39.5,29.8,30.40,ENE,76,0.0,0.0,68,0.00,CLR,,0.00,WeatherDisplay:10.37,2013-10-29 05:17:00,
2013-10-29 01:19:00,39.3,29.3,30.40,ENE,76,0.0,0.0,67,0.00,CLR,,0.00,WeatherDisplay:10.37,2013-10-29 05:19:00,
2013-10-29 01:20:00,39.3,29.3,30.40,ENE,76,0.0,0.0,67,0.00,CLR,,0.00,WeatherDisplay:10.37,2013-10-29 05:20:00,
2013-10-29 01:21:00,39.3,29.3,30.40,ENE,76,0.0,0.0,67,0.00,CLR,,0.00,WeatherDisplay:10.37,2013-10-29 05:21:00,
2013-10-29 01:23:00,39.3,29.3,30.40,ENE,76,0.0,0.0,67,0.00,CLR,,0.00,WeatherDisplay:10.37,2013-10-29 05:23:00,
2013-10-29 01:25:00,39.3,29.3,30.40,ENE,76,0.0,0.0,67,0.00,CLR,,0.00,WeatherDisplay:10.37,2013-10-29 05:25:00,
2013-10-29 01:26:00,39.3,29.3,30.40,ENE,76,0.0,0.0,67,0.00,CLR,,0.00,WeatherDisplay:10.37,2013-10-29 05:26:00,
2013-10-29 01:27:00,39.3,29.6,30.40,ENE,76,0.0,0.0,68,0.00,CLR,,0.00,WeatherDisplay:10.37,2013-10-29 05:27:00,
2013-10-29 01:29:00,39.3,29.6,30.40,ENE,76,0.0,0.0,68,0.00,CLR,,0.00,WeatherDisplay:10.37,2013-10-29 05:29:00,
2013-10-29 01:30:00,39.2,29.9,30.40,ENE,76,0.0,0.0,69,0.00,CLR,,0.00,WeatherDisplay:10.37,2013-10-29 05:30:00,
2013-10-29 01:31:00,39.2,29.9,30.40,ENE,76,0.0,0.0,69,0.00,CLR,,0.00,WeatherDisplay:10.37,2013-10-29 05:31:00,
2013-10-29 01:33:00,39.2,30.2,30.40,ENE,76,0.0,0.0,70,0.00,CLR,,0.00,WeatherDisplay:10.37,2013-10-29 05:33:00,
2013-10-29 01:34:00,39.2,29.9,30.40,ENE,76,0.0,0.0,69,0.00,CLR,,0.00,WeatherDisplay:10.37,2013-10-29 05:34:00,
2013-10-29 01:35:00,39.2,29.9,30.40,ENE,76,0.0,0.0,69,0.00,CLR,,0.00,WeatherDisplay:10.37,2013-10-29 05:35:00,
2013-10-29 01:38:00,39.2,30.2,30.40,ENE,76,0.0,0.0,70,0.00,CLR,,0.00,WeatherDisplay:10.37,2013-10-29 05:38:00,
2013-10-29 01:40:00,39.1,30.1,30.41,ENE,76,0.0,0.0,70,0.00,CLR,,0.00,WeatherDisplay:10.37,2013-10-29 05:40:00,
2013-10-29 01:41:00,39.1,29.8,30.41,ENE,76,0.0,0.0,69,0.00,CLR,,0.00,WeatherDisplay:10.37,2013-10-29 05:41:00,
2013-10-29 01:45:00,39.1,30.1,30.40,ENE,76,0.0,0.0,70,0.00,CLR,,0.00,WeatherDisplay:10.37,2013-10-29 05:45:00,
2013-10-29 01:46:00,39.1,30.1,30.41,ENE,76,0.0,0.0,70,0.00,CLR,,0.00,WeatherDisplay:10.37,2013-10-29 05:46:00,
2013-10-29 01:47:00,39.1,30.1,30.41,ENE,76,0.0,0.0,70,0.00,CLR,,0.00,WeatherDisplay:10.37,2013-10-29 05:47:00,
2013-10-29 01:50:00,39.1,30.1,30.41,ENE,76,0.0,0.0,70,0.00,CLR,,0.00,WeatherDisplay:10.37,2013-10-29 05:50:00,
2013-10-29 01:51:00,39.1,30.5,30.41,ENE,76,0.0,0.0,71,0.00,CLR,,0.00,WeatherDisplay:10.37,2013-10-29 05:51:00,
2013-10-29 01:52:00,39.1,30.5,30.41,ENE,76,0.0,0.0,71,0.00,CLR,,0.00,WeatherDisplay:10.37,2013-10-29 05:52:00,
2013-10-29 01:55:00,38.9,29.9,30.41,ENE,76,0.0,0.0,70,0.00,CLR,,0.00,WeatherDisplay:10.37,2013-10-29 05:55:00,
2013-10-29 01:56:00,38.9,29.9,30.41,ENE,76,0.0,0.0,70,0.00,CLR,,0.00,WeatherDisplay:10.37,2013-10-29 05:56:00,
2013-10-29 01:57:00,38.9,29.9,30.41,ENE,76,0.0,0.0,70,0.00,CLR,,0.00,WeatherDisplay:10.37,2013-10-29 05:57:00,
2013-10-29 01:58:00,38.9,29.9,30.41,ENE,76,0.0,0.0,70,0.00,CLR,,0.00,WeatherDisplay:10.37,2013-10-29 05:58:00,
2013-10-29 02:01:00,38.9,30.6,30.41,ENE,76,0.0,0.0,72,0.00,CLR,,0.00,WeatherDisplay:10.37,2013-10-29 06:01:00,
2013-10-29 02:02:00,38.9,30.6,30.41,ENE,76,0.0,0.0,72,0.00,CLR,,0.00,WeatherDisplay:10.37,2013-10-29 06:02:00,
2013-10-29 02:03:00,38.9,30.6,30.41,ENE,76,0.0,0.0,72,0.00,CLR,,0.00,WeatherDisplay:10.37,2013-10-29 06:03:00,
2013-10-29 02:07:00,38.8,30.2,30.41,ENE,76,0.0,0.0,71,0.00,CLR,,0.00,WeatherDisplay:10.37,2013-10-29 06:07:00,
2013-10-29 02:08:00,38.8,30.2,30.41,ENE,76,0.0,0.0,71,0.00,CLR,,0.00,WeatherDisplay:10.37,2013-10-29 06:08:00,
2013-10-29 02:09:00,38.8,30.2,30.41,ENE,76,0.0,0.0,71,0.00,CLR,,0.00,WeatherDisplay:10.37,2013-10-29 06:09:00,
2013-10-29 02:12:00,38.8,30.9,30.41,ENE,76,0.0,0.0,73,0.00,CLR,,0.00,WeatherDisplay:10.37,2013-10-29 06:12:00,
2013-10-29 02:13:00,38.8,30.9,30.41,ENE,76,0.0,0.0,73,0.00,CLR,,0.00,WeatherDisplay:10.37,2013-10-29 06:13:00,
2013-10-29 02:14:00,38.8,30.9,30.41,ENE,76,0.0,0.0,73,0.00,CLR,,0.00,WeatherDisplay:10.37,2013-10-29 06:14:00,
2013-10-29 02:15:00,38.8,30.9,30.41,ENE,76,0.0,0.0,73,0.00,CLR,,0.00,WeatherDisplay:10.37,2013-10-29 06:15:00,
2013-10-29 02:17:00,38.8,31.2,30.41,ENE,76,0.0,0.0,74,0.00,CLR,,0.00,WeatherDisplay:10.37,2013-10-29 06:17:00,
2013-10-29 02:19:00,38.8,31.6,30.41,ENE,76,0.0,0.0,75,0.00,CLR,,0.00,WeatherDisplay:10.37,2013-10-29 06:19:00,
2013-10-29 02:20:00,38.8,31.9,30.41,ENE,76,0.0,0.0,76,0.00,CLR,,0.00,WeatherDisplay:10.37,2013-10-29 06:20:00,
2013-10-29 02:21:00,38.6,31.7,30.41,ENE,76,0.0,0.0,76,0.00,CLR,,0.00,WeatherDisplay:10.37,2013-10-29 06:21:00,
2013-10-29 02:22:00,38.6,31.7,30.41,ENE,76,0.0,0.0,76,0.00,CLR,,0.00,WeatherDisplay:10.37,2013-10-29 06:22:00,
2013-10-29 02:23:00,38.6,32.0,30.41,ENE,76,0.0,0.0,77,0.00,CLR,,0.00,WeatherDisplay:10.37,2013-10-29 06:23:00,
2013-10-29 02:25:00,38.6,32.0,30.41,ENE,76,0.0,0.0,77,0.00,CLR,,0.00,WeatherDisplay:10.37,2013-10-29 06:25:00,
2013-10-29 02:26:00,38.5,32.2,30.41,ENE,76,0.0,0.0,78,0.00,CLR,,0.00,WeatherDisplay:10.37,2013-10-29 06:26:00,
2013-10-29 02:27:00,38.5,31.9,30.41,ENE,76,0.0,0.0,77,0.00,CLR,,0.00,WeatherDisplay:10.37,2013-10-29 06:27:00,
2013-10-29 02:28:00,38.5,32.2,30.41,ENE,76,0.0,0.0,78,0.00,CLR,,0.00,WeatherDisplay:10.37,2013-10-29 06:28:00,
2013-10-29 02:30:00,38.3,32.0,30.41,ENE,76,0.0,0.0,78,0.00,CLR,,0.00,WeatherDisplay:10.37,2013-10-29 06:30:00,
2013-10-29 02:31:00,38.3,32.0,30.41,ENE,76,0.0,0.0,78,0.00,CLR,,0.00,WeatherDisplay:10.37,2013-10-29 06:31:00,
2013-10-29 02:32:00,38.3,31.7,30.41,ENE,76,0.0,0.0,77,0.00,CLR,,0.00,WeatherDisplay:10.37,2013-10-29 06:32:00,
2013-10-29 02:35:00,38.3,31.1,30.41,ENE,76,0.0,0.0,75,0.00,CLR,,0.00,WeatherDisplay:10.37,2013-10-29 06:35:00,
2013-10-29 02:36:00,38.3,30.7,30.41,ENE,76,0.0,0.0,74,0.00,CLR,,0.00,WeatherDisplay:10.37,2013-10-29 06:36:00,
2013-10-29 02:37:00,38.3,31.1,30.41,ENE,76,0.0,0.0,75,0.00,CLR,,0.00,WeatherDisplay:10.37,2013-10-29 06:37:00,
2013-10-29 02:38:00,38.5,31.3,30.41,ENE,76,0.0,0.0,75,0.00,CLR,,0.00,WeatherDisplay:10.37,2013-10-29 06:38:00,
2013-10-29 02:40:00,38.5,31.3,30.41,ENE,76,0.0,0.0,75,0.00,CLR,,0.00,WeatherDisplay:10.37,2013-10-29 06:40:00,
2013-10-29 02:41:00,38.5,31.3,30.41,ENE,76,0.0,0.0,75,0.00,CLR,,0.00,WeatherDisplay:10.37,2013-10-29 06:41:00,
2013-10-29 02:42:00,38.5,30.9,30.41,ENE,76,0.0,0.0,74,0.00,CLR,,0.00,WeatherDisplay:10.37,2013-10-29 06:42:00,
2013-10-29 02:43:00,38.5,31.3,30.41,ENE,76,0.0,0.0,75,0.00,CLR,,0.00,WeatherDisplay:10.37,2013-10-29 06:43:00,
2013-10-29 02:46:00,38.5,31.6,30.41,ENE,76,0.0,0.0,76,0.00,CLR,,0.00,WeatherDisplay:10.37,2013-10-29 06:46:00,
2013-10-29 02:47:00,38.6,31.7,30.41,ENE,76,0.0,0.0,76,0.00,CLR,,0.00,WeatherDisplay:10.37,2013-10-29 06:47:00,
2013-10-29 02:48:00,38.5,31.6,30.41,ENE,76,0.0,0.0,76,0.00,CLR,,0.00,WeatherDisplay:10.37,2013-10-29 06:48:00,
2013-10-29 02:49:00,38.5,31.6,30.41,ENE,76,0.0,0.0,76,0.00,CLR,,0.00,WeatherDisplay:10.37,2013-10-29 06:49:00,
2013-10-29 02:51:00,38.5,31.6,30.41,ENE,76,0.0,0.0,76,0.00,CLR,,0.00,WeatherDisplay:10.37,2013-10-29 06:51:00,
2013-10-29 02:53:00,38.5,31.6,30.41,ENE,76,0.0,0.0,76,0.00,CLR,,0.00,WeatherDisplay:10.37,2013-10-29 06:53:00,
2013-10-29 02:54:00,38.5,31.6,30.41,ENE,76,0.0,0.0,76,0.00,CLR,,0.00,WeatherDisplay:10.37,2013-10-29 06:54:00,
2013-10-29 02:56:00,38.5,31.3,30.41,ENE,76,0.0,0.0,75,0.00,CLR,,0.00,WeatherDisplay:10.37,2013-10-29 06:56:00,
2013-10-29 02:58:00,38.5,31.3,30.41,ENE,76,0.0,0.0,75,0.00,CLR,,0.00,WeatherDisplay:10.37,2013-10-29 06:58:00,
2013-10-29 02:59:00,38.5,31.3,30.41,ENE,76,0.0,0.0,75,0.00,CLR,,0.00,WeatherDisplay:10.37,2013-10-29 06:59:00,
2013-10-29 03:01:00,38.6,31.7,30.41,ENE,76,0.0,0.0,76,0.00,CLR,,0.00,WeatherDisplay:10.37,2013-10-29 07:01:00,
2013-10-29 03:02:00,38.6,31.4,30.41,ENE,76,0.0,0.0,75,0.00,CLR,,0.00,WeatherDisplay:10.37,2013-10-29 07:02:00,
2013-10-29 03:05:00,38.6,31.7,30.41,ENE,76,0.0,0.0,76,0.00,CLR,,0.00,WeatherDisplay:10.37,2013-10-29 07:05:00,
2013-10-29 03:06:00,38.6,31.4,30.41,ENE,76,0.0,0.0,75,0.00,CLR,,0.00,WeatherDisplay:10.37,2013-10-29 07:06:00,
2013-10-29 03:07:00,38.6,31.4,30.41,ENE,76,0.0,0.0,75,0.00,CLR,,0.00,WeatherDisplay:10.37,2013-10-29 07:07:00,
2013-10-29 03:09:00,38.6,31.4,30.41,ENE,76,0.0,0.0,75,0.00,CLR,,0.00,WeatherDisplay:10.37,2013-10-29 07:09:00,
2013-10-29 03:10:00,38.6,31.4,30.41,ENE,76,0.0,0.0,75,0.00,CLR,,0.00,WeatherDisplay:10.37,2013-10-29 07:10:00,
2013-10-29 03:11:00,38.6,31.4,30.41,ENE,76,0.0,0.0,75,0.00,CLR,,0.00,WeatherDisplay:10.37,2013-10-29 07:11:00,
2013-10-29 03:12:00,38.6,31.4,30.41,ENE,76,0.0,0.0,75,0.00,CLR,,0.00,WeatherDisplay:10.37,2013-10-29 07:12:00,
2013-10-29 03:13:00,38.6,31.4,30.41,ENE,76,0.0,0.0,75,0.00,CLR,,0.00,WeatherDisplay:10.37,2013-10-29 07:13:00,
2013-10-29 03:14:00,38.6,31.4,30.41,ENE,76,0.0,0.0,75,0.00,CLR,,0.00,WeatherDisplay:10.37,2013-10-29 07:14:00,
2013-10-29 03:15:00,38.6,31.4,30.41,ENE,76,0.0,0.0,75,0.00,CLR,,0.00,WeatherDisplay:10.37,2013-10-29 07:15:00,
2013-10-29 03:16:00,38.6,31.4,30.41,ENE,76,0.0,0.0,75,0.00,CLR,,0.00,WeatherDisplay:10.37,2013-10-29 07:16:00,
2013-10-29 03:17:00,38.6,31.7,30.41,ENE,76,0.0,0.0,76,0.00,CLR,,0.00,WeatherDisplay:10.37,2013-10-29 07:17:00,
2013-10-29 03:18:00,38.6,31.7,30.41,ENE,76,0.0,0.0,76,0.00,CLR,,0.00,WeatherDisplay:10.37,2013-10-29 07:18:00,
2013-10-29 03:19:00,38.6,31.7,30.41,ENE,76,0.0,0.0,76,0.00,CLR,,0.00,WeatherDisplay:10.37,2013-10-29 07:19:00,
2013-10-29 03:20:00,38.6,31.7,30.41,ENE,76,0.0,0.0,76,0.00,CLR,,0.00,WeatherDisplay:10.37,2013-10-29 07:20:00,
2013-10-29 03:22:00,38.6,31.7,30.41,ENE,76,0.0,0.0,76,0.00,CLR,,0.00,WeatherDisplay:10.37,2013-10-29 07:22:00,
2013-10-29 03:23:00,38.6,31.7,30.41,ENE,76,0.0,0.0,76,0.00,CLR,,0.00,WeatherDisplay:10.37,2013-10-29 07:23:00,
2013-10-29 03:24:00,38.6,31.7,30.42,ENE,76,0.0,0.0,76,0.00,CLR,,0.00,WeatherDisplay:10.37,2013-10-29 07:24:00,
2013-10-29 03:25:00,38.6,31.7,30.42,ENE,76,0.0,0.0,76,0.00,CLR,,0.00,WeatherDisplay:10.37,2013-10-29 07:25:00,
2013-10-29 03:26:00,38.6,32.0,30.42,ENE,76,0.0,0.0,77,0.00,CLR,,0.00,WeatherDisplay:10.37,2013-10-29 07:26:00,
2013-10-29 03:27:00,38.6,32.0,30.42,ENE,76,0.0,0.0,77,0.00,CLR,,0.00,WeatherDisplay:10.37,2013-10-29 07:27:00,
2013-10-29 03:29:00,38.6,32.0,30.42,ENE,76,0.0,0.0,77,0.00,CLR,,0.00,WeatherDisplay:10.37,2013-10-29 07:29:00,
2013-10-29 03:30:00,38.6,32.0,30.42,ENE,76,0.0,0.0,77,0.00,CLR,,0.00,WeatherDisplay:10.37,2013-10-29 07:30:00,
2013-10-29 03:31:00,38.6,32.0,30.42,ENE,76,0.0,0.0,77,0.00,CLR,,0.00,WeatherDisplay:10.37,2013-10-29 07:31:00,
2013-10-29 03:32:00,38.6,32.0,30.42,ENE,76,0.0,0.0,77,0.00,CLR,,0.00,WeatherDisplay:10.37,2013-10-29 07:32:00,
2013-10-29 03:34:00,38.6,32.0,30.42,ENE,76,0.0,0.0,77,0.00,CLR,,0.00,WeatherDisplay:10.37,2013-10-29 07:34:00,
2013-10-29 03:35:00,38.6,32.0,30.42,ENE,76,0.0,0.0,77,0.00,CLR,,0.00,WeatherDisplay:10.37,2013-10-29 07:35:00,
2013-10-29 03:37:00,38.5,31.9,30.42,ENE,76,0.0,0.0,77,0.00,CLR,,0.00,WeatherDisplay:10.37,2013-10-29 07:37:00,
2013-10-29 03:40:00,38.5,31.9,30.41,ENE,76,0.0,0.0,77,0.00,CLR,,0.00,WeatherDisplay:10.37,2013-10-29 07:40:00,
2013-10-29 03:41:00,38.5,31.6,30.41,ENE,76,0.0,0.0,76,0.00,CLR,,0.00,WeatherDisplay:10.37,2013-10-29 07:41:00,
2013-10-29 03:43:00,38.5,31.3,30.41,ENE,76,0.0,0.0,75,0.00,CLR,,0.00,WeatherDisplay:10.37,2013-10-29 07:43:00,
2013-10-29 03:45:00,38.6,31.4,30.42,ENE,76,0.0,0.0,75,0.00,CLR,,0.00,WeatherDisplay:10.37,2013-10-29 07:45:00,
2013-10-29 03:46:00,38.6,31.4,30.42,ENE,76,0.0,0.0,75,0.00,CLR,,0.00,WeatherDisplay:10.37,2013-10-29 07:46:00,
2013-10-29 03:47:00,38.6,31.4,30.42,ENE,76,0.0,0.0,75,0.00,CLR,,0.00,WeatherDisplay:10.37,2013-10-29 07:47:00,
2013-10-29 03:48:00,38.6,31.4,30.42,ENE,76,0.0,0.0,75,0.00,CLR,,0.00,WeatherDisplay:10.37,2013-10-29 07:48:00,
2013-10-29 03:49:00,38.6,31.7,30.42,ENE,76,0.0,0.0,76,0.00,CLR,,0.00,WeatherDisplay:10.37,2013-10-29 07:49:00,
2013-10-29 03:51:00,38.6,31.7,30.42,ENE,76,0.0,0.0,76,0.00,CLR,,0.00,WeatherDisplay:10.37,2013-10-29 07:51:00,
2013-10-29 03:52:00,38.6,31.7,30.41,ENE,76,0.0,0.0,76,0.00,CLR,,0.00,WeatherDisplay:10.37,2013-10-29 07:52:00,
2013-10-29 03:53:00,38.6,32.0,30.41,ENE,76,0.0,0.0,77,0.00,CLR,,0.00,WeatherDisplay:10.37,2013-10-29 07:53:00,
2013-10-29 03:54:00,38.5,31.9,30.41,ENE,76,0.0,0.0,77,0.00,CLR,,0.00,WeatherDisplay:10.37,2013-10-29 07:54:00,
2013-10-29 03:56:00,38.5,32.2,30.41,ENE,76,0.0,0.0,78,0.00,CLR,,0.00,WeatherDisplay:10.37,2013-10-29 07:56:00,
2013-10-29 03:57:00,38.5,32.6,30.41,ENE,76,0.0,0.0,79,0.00,CLR,,0.00,WeatherDisplay:10.37,2013-10-29 07:57:00,
2013-10-29 03:58:00,38.3,32.4,30.41,ENE,76,0.0,0.0,79,0.00,CLR,,0.00,WeatherDisplay:10.37,2013-10-29 07:58:00,
2013-10-29 03:59:00,38.3,32.4,30.41,ENE,76,0.0,0.0,79,0.00,CLR,,0.00,WeatherDisplay:10.37,2013-10-29 07:59:00,
2013-10-29 04:02:00,38.3,32.7,30.41,ENE,76,0.0,0.0,80,0.00,CLR,,0.00,WeatherDisplay:10.37,2013-10-29 08:02:00,
2013-10-29 04:04:00,38.2,32.6,30.41,ENE,76,0.0,0.0,80,0.00,CLR,,0.00,WeatherDisplay:10.37,2013-10-29 08:04:00,
2013-10-29 04:06:00,38.0,32.4,30.41,ENE,76,0.0,0.0,80,0.00,CLR,,0.00,WeatherDisplay:10.37,2013-10-29 08:06:00,
2013-10-29 04:07:00,38.0,32.1,30.41,ENE,76,0.0,0.0,79,0.00,CLR,,0.00,WeatherDisplay:10.37,2013-10-29 08:07:00,
2013-10-29 04:08:00,38.0,32.1,30.41,ENE,76,0.0,0.0,79,0.00,CLR,,0.00,WeatherDisplay:10.37,2013-10-29 08:08:00,
2013-10-29 04:09:00,38.0,31.7,30.41,ENE,76,0.0,0.0,78,0.00,CLR,,0.00,WeatherDisplay:10.37,2013-10-29 08:09:00,
2013-10-29 04:10:00,38.0,31.7,30.41,ENE,76,0.0,0.0,78,0.00,CLR,,0.00,WeatherDisplay:10.37,2013-10-29 08:10:00,
2013-10-29 04:11:00,38.0,31.4,30.41,ENE,76,0.0,0.0,77,0.00,CLR,,0.00,WeatherDisplay:10.37,2013-10-29 08:11:00,
2013-10-29 04:13:00,38.0,31.4,30.40,ENE,76,0.0,0.0,77,0.00,CLR,,0.00,WeatherDisplay:10.37,2013-10-29 08:13:00,
2013-10-29 04:14:00,38.0,31.1,30.41,ENE,76,0.0,0.0,76,0.00,CLR,,0.00,WeatherDisplay:10.37,2013-10-29 08:14:00,
2013-10-29 04:16:00,38.0,30.8,30.41,ENE,76,0.0,0.0,75,0.00,CLR,,0.00,WeatherDisplay:10.37,2013-10-29 08:16:00,
2013-10-29 04:17:00,38.0,30.8,30.41,ENE,76,0.0,0.0,75,0.00,CLR,,0.00,WeatherDisplay:10.37,2013-10-29 08:17:00,
2013-10-29 04:18:00,38.0,30.4,30.41,ENE,76,0.0,0.0,74,0.00,CLR,,0.00,WeatherDisplay:10.37,2013-10-29 08:18:00,
2013-10-29 04:19:00,38.2,30.6,30.41,ENE,76,0.0,0.0,74,0.00,CLR,,0.00,WeatherDisplay:10.37,2013-10-29 08:19:00,
2013-10-29 04:21:00,38.2,30.3,30.41,ENE,76,0.0,0.0,73,0.00,CLR,,0.00,WeatherDisplay:10.37,2013-10-29 08:21:00,
2013-10-29 04:22:00,38.2,30.3,30.41,ENE,76,0.0,0.0,73,0.00,CLR,,0.00,WeatherDisplay:10.37,2013-10-29 08:22:00,
2013-10-29 04:24:00,38.2,30.3,30.41,ENE,76,0.0,0.0,73,0.00,CLR,,0.00,WeatherDisplay:10.37,2013-10-29 08:24:00,
2013-10-29 04:26:00,38.2,31.0,30.41,ENE,76,0.0,0.0,75,0.00,CLR,,0.00,WeatherDisplay:10.37,2013-10-29 08:26:00,
2013-10-29 04:27:00,38.0,30.8,30.41,ENE,76,0.0,0.0,75,0.00,CLR,,0.00,WeatherDisplay:10.37,2013-10-29 08:27:00,
2013-10-29 04:29:00,37.9,30.7,30.41,ENE,76,0.0,0.0,75,0.00,CLR,,0.00,WeatherDisplay:10.37,2013-10-29 08:29:00,
2013-10-29 04:30:00,37.9,30.7,30.41,ENE,76,0.0,0.0,75,0.00,CLR,,0.00,WeatherDisplay:10.37,2013-10-29 08:30:00,
2013-10-29 04:32:00,37.8,30.9,30.42,ENE,76,0.0,0.0,76,0.00,CLR,,0.00,WeatherDisplay:10.37,2013-10-29 08:32:00,
2013-10-29 04:33:00,37.6,30.7,30.42,ENE,76,0.0,0.0,76,0.00,CLR,,0.00,WeatherDisplay:10.37,2013-10-29 08:33:00,
2013-10-29 04:34:00,37.6,30.7,30.42,ENE,76,0.0,0.0,76,0.00,CLR,,0.00,WeatherDisplay:10.37,2013-10-29 08:34:00,
2013-10-29 04:36:00,37.5,31.3,30.42,ENE,76,0.0,0.0,78,0.00,CLR,,0.00,WeatherDisplay:10.37,2013-10-29 08:36:00,
2013-10-29 04:37:00,37.2,31.3,30.42,ENE,76,0.0,0.0,79,0.00,CLR,,0.00,WeatherDisplay:10.37,2013-10-29 08:37:00,
2013-10-29 04:38:00,37.2,31.6,30.42,ENE,76,0.0,0.0,80,0.00,CLR,,0.00,WeatherDisplay:10.37,2013-10-29 08:38:00,
2013-10-29 04:39:00,36.9,31.3,30.42,ENE,76,0.0,0.0,80,0.00,CLR,,0.00,WeatherDisplay:10.37,2013-10-29 08:39:00,
2013-10-29 04:40:00,36.8,31.5,30.42,ENE,76,0.0,0.0,81,0.00,CLR,,0.00,WeatherDisplay:10.37,2013-10-29 08:40:00,
2013-10-29 04:41:00,36.5,31.5,30.42,ENE,76,0.0,0.0,82,0.00,CLR,,0.00,WeatherDisplay:10.37,2013-10-29 08:41:00,
2013-10-29 04:42:00,36.3,31.6,30.42,ENE,76,0.0,0.0,83,0.00,CLR,,0.00,WeatherDisplay:10.37,2013-10-29 08:42:00,
2013-10-29 04:43:00,36.2,31.5,30.42,ENE,76,0.0,0.0,83,0.00,CLR,,0.00,WeatherDisplay:10.37,2013-10-29 08:43:00,
2013-10-29 04:44:00,36.2,31.5,30.42,ENE,76,0.0,0.0,83,0.00,CLR,,0.00,WeatherDisplay:10.37,2013-10-29 08:44:00,
2013-10-29 04:45:00,36.0,31.6,30.42,ENE,76,0.0,0.0,84,0.00,CLR,,0.00,WeatherDisplay:10.37,2013-10-29 08:45:00,
2013-10-29 04:47:00,35.9,31.5,30.42,ENE,76,0.0,0.0,84,0.00,CLR,,0.00,WeatherDisplay:10.37,2013-10-29 08:47:00,
2013-10-29 04:48:00,35.9,31.8,30.42,ENE,76,0.0,0.0,85,0.00,CLR,,0.00,WeatherDisplay:10.37,2013-10-29 08:48:00,
2013-10-29 04:49:00,35.9,31.8,30.42,ENE,76,0.0,0.0,85,0.00,CLR,,0.00,WeatherDisplay:10.37,2013-10-29 08:49:00,
2013-10-29 04:50:00,35.8,31.7,30.42,ENE,76,0.0,0.0,85,0.00,CLR,,0.00,WeatherDisplay:10.37,2013-10-29 08:50:00,
2013-10-29 04:51:00,35.8,31.7,30.42,ENE,76,0.0,0.0,85,0.00,CLR,,0.00,WeatherDisplay:10.37,2013-10-29 08:51:00,
2013-10-29 04:53:00,35.8,31.7,30.42,ENE,76,0.0,0.0,85,0.00,CLR,,0.00,WeatherDisplay:10.37,2013-10-29 08:53:00,
2013-10-29 04:54:00,35.8,31.7,30.42,ENE,76,0.0,0.0,85,0.00,CLR,,0.00,WeatherDisplay:10.37,2013-10-29 08:54:00,
2013-10-29 04:55:00,35.9,31.8,30.42,ENE,76,0.0,0.0,85,0.00,CLR,,0.00,WeatherDisplay:10.37,2013-10-29 08:55:00,
2013-10-29 04:56:00,35.9,31.5,30.42,ENE,76,0.0,0.0,84,0.00,CLR,,0.00,WeatherDisplay:10.37,2013-10-29 08:56:00,
2013-10-29 04:59:00,36.0,31.3,30.42,ENE,76,0.0,0.0,83,0.00,CLR,,0.00,WeatherDisplay:10.37,2013-10-29 08:59:00,
2013-10-29 05:00:00,36.0,31.3,30.42,ENE,76,0.0,0.0,83,0.00,CLR,,0.00,WeatherDisplay:10.37,2013-10-29 09:00:00,
2013-10-29 05:02:00,36.0,31.3,30.42,ENE,76,0.0,0.0,83,0.00,CLR,,0.00,WeatherDisplay:10.37,2013-10-29 09:02:00,
2013-10-29 05:05:00,35.8,31.4,30.42,ENE,76,0.0,0.0,84,0.00,CLR,,0.00,WeatherDisplay:10.37,2013-10-29 09:05:00,
2013-10-29 05:07:00,35.5,31.4,30.42,ENE,76,0.0,0.0,85,0.00,CLR,,0.00,WeatherDisplay:10.37,2013-10-29 09:07:00,
2013-10-29 05:08:00,35.3,31.5,30.42,ENE,76,0.0,0.0,86,0.00,CLR,,0.00,WeatherDisplay:10.37,2013-10-29 09:08:00,
2013-10-29 05:10:00,35.2,31.7,30.42,ENE,76,0.0,0.0,87,0.00,CLR,,0.00,WeatherDisplay:10.37,2013-10-29 09:10:00,
2013-10-29 05:11:00,35.2,31.7,30.42,ENE,76,0.0,0.0,87,0.00,CLR,,0.00,WeatherDisplay:10.37,2013-10-29 09:11:00,
2013-10-29 05:12:00,35.0,31.8,30.42,ENE,76,0.0,0.0,88,0.00,CLR,,0.00,WeatherDisplay:10.37,2013-10-29 09:12:00,
2013-10-29 05:13:00,35.0,31.8,30.42,East,82,0.0,0.0,88,0.00,CLR,,0.00,WeatherDisplay:10.37,2013-10-29 09:13:00,
2013-10-29 05:14:00,35.0,31.8,30.42,East,82,0.0,0.0,88,0.00,CLR,,0.00,WeatherDisplay:10.37,2013-10-29 09:14:00,
2013-10-29 05:16:00,34.9,31.7,30.42,East,82,0.0,0.0,88,0.00,CLR,,0.00,WeatherDisplay:10.37,2013-10-29 09:16:00,
2013-10-29 05:17:00,34.9,31.7,30.42,East,82,0.0,0.0,88,0.00,CLR,,0.00,WeatherDisplay:10.37,2013-10-29 09:17:00,
2013-10-29 05:18:00,34.7,31.8,30.42,East,83,0.0,0.0,89,0.00,CLR,,0.00,WeatherDisplay:10.37,2013-10-29 09:18:00,
2013-10-29 05:19:00,34.7,31.8,30.42,East,83,0.0,0.0,89,0.00,CLR,,0.00,WeatherDisplay:10.37,2013-10-29 09:19:00,
2013-10-29 05:21:00,34.9,32.0,30.42,East,83,0.0,0.0,89,0.00,CLR,,0.00,WeatherDisplay:10.37,2013-10-29 09:21:00,
2013-10-29 05:23:00,35.2,32.3,30.42,ESE,102,0.0,0.0,89,0.00,CLR,,0.00,WeatherDisplay:10.37,2013-10-29 09:23:00,
2013-10-29 05:24:00,35.3,32.1,30.42,ESE,102,0.0,0.0,88,0.00,CLR,,0.00,WeatherDisplay:10.37,2013-10-29 09:24:00,
2013-10-29 05:27:00,35.5,31.7,30.42,ESE,109,0.0,0.0,86,0.00,CLR,,0.00,WeatherDisplay:10.37,2013-10-29 09:27:00,
2013-10-29 05:28:00,35.5,31.7,30.42,ESE,110,0.0,0.0,86,0.00,CLR,,0.00,WeatherDisplay:10.37,2013-10-29 09:28:00,
2013-10-29 05:29:00,35.5,31.7,30.42,ESE,110,0.0,0.0,86,0.00,CLR,,0.00,WeatherDisplay:10.37,2013-10-29 09:29:00,
2013-10-29 05:30:00,35.3,31.5,30.42,ESE,110,0.0,0.0,86,0.00,CLR,,0.00,WeatherDisplay:10.37,2013-10-29 09:30:00,
2013-10-29 05:32:00,35.3,31.5,30.42,ESE,110,0.0,0.0,86,0.00,CLR,,0.00,WeatherDisplay:10.37,2013-10-29 09:32:00,
2013-10-29 05:33:00,35.3,31.5,30.42,ESE,110,0.0,0.0,86,0.00,CLR,,0.00,WeatherDisplay:10.37,2013-10-29 09:33:00,
2013-10-29 05:34:00,35.3,31.5,30.42,ESE,110,0.0,0.0,86,0.00,CLR,,0.00,WeatherDisplay:10.37,2013-10-29 09:34:00,
2013-10-29 05:35:00,35.3,31.2,30.42,ESE,110,0.0,0.0,85,0.00,CLR,,0.00,WeatherDisplay:10.37,2013-10-29 09:35:00,
2013-10-29 05:37:00,35.2,31.1,30.42,ESE,110,0.0,0.0,85,0.00,CLR,,0.00,WeatherDisplay:10.37,2013-10-29 09:37:00,
2013-10-29 05:38:00,35.2,31.1,30.42,ESE,110,0.0,0.0,85,0.00,CLR,,0.00,WeatherDisplay:10.37,2013-10-29 09:38:00,
2013-10-29 05:39:00,35.0,31.2,30.42,ESE,110,0.0,0.0,86,0.00,CLR,,0.00,WeatherDisplay:10.37,2013-10-29 09:39:00,
2013-10-29 05:40:00,35.0,31.2,30.42,ESE,110,0.0,0.0,86,0.00,CLR,,0.00,WeatherDisplay:10.37,2013-10-29 09:40:00,
2013-10-29 05:42:00,34.9,31.1,30.42,ESE,110,0.0,0.0,86,0.00,CLR,,0.00,WeatherDisplay:10.37,2013-10-29 09:42:00,
2013-10-29 05:44:00,34.7,30.9,30.43,ESE,110,0.0,0.0,86,0.00,CLR,,0.00,WeatherDisplay:10.37,2013-10-29 09:44:00,
2013-10-29 05:45:00,34.7,30.9,30.43,ESE,110,0.0,0.0,86,0.00,CLR,,0.00,WeatherDisplay:10.37,2013-10-29 09:45:00,
2013-10-29 05:48:00,34.4,30.9,30.43,ESE,110,0.0,0.0,87,0.00,CLR,,0.00,WeatherDisplay:10.37,2013-10-29 09:48:00,
2013-10-29 05:50:00,34.3,30.8,30.43,ESE,110,0.0,0.0,87,0.00,CLR,,0.00,WeatherDisplay:10.37,2013-10-29 09:50:00,
2013-10-29 05:51:00,34.3,30.8,30.44,ESE,110,0.0,0.0,87,0.00,CLR,,0.00,WeatherDisplay:10.37,2013-10-29 09:51:00,
2013-10-29 05:53:00,34.1,30.9,30.44,ESE,110,0.0,0.0,88,0.00,CLR,,0.00,WeatherDisplay:10.37,2013-10-29 09:53:00,
2013-10-29 05:55:00,34.0,30.8,30.44,ESE,110,0.0,0.0,88,0.00,CLR,,0.00,WeatherDisplay:10.37,2013-10-29 09:55:00,
2013-10-29 05:56:00,34.0,30.8,30.44,ESE,110,0.0,0.0,88,0.00,CLR,,0.00,WeatherDisplay:10.37,2013-10-29 09:56:00,
2013-10-29 05:59:00,34.0,30.8,30.44,ESE,110,0.0,0.0,88,0.00,CLR,,0.00,WeatherDisplay:10.37,2013-10-29 09:59:00,
2013-10-29 06:00:00,33.8,30.6,30.44,ESE,110,0.0,0.0,88,0.00,CLR,,0.00,WeatherDisplay:10.37,2013-10-29 10:00:00,
2013-10-29 06:01:00,33.8,30.6,30.44,ESE,110,0.0,0.0,88,0.00,CLR,,0.00,WeatherDisplay:10.37,2013-10-29 10:01:00,
2013-10-29 06:02:00,33.8,30.6,30.44,ESE,110,0.0,0.0,88,0.00,CLR,,0.00,WeatherDisplay:10.37,2013-10-29 10:02:00,
2013-10-29 06:04:00,33.8,30.6,30.44,ESE,110,0.0,0.0,88,0.00,CLR,,0.00,WeatherDisplay:10.37,2013-10-29 10:04:00,
2013-10-29 06:05:00,33.8,30.6,30.45,ESE,110,0.0,0.0,88,0.00,CLR,,0.00,WeatherDisplay:10.37,2013-10-29 10:05:00,
2013-10-29 06:06:00,33.8,30.6,30.45,ESE,110,0.0,0.0,88,0.00,CLR,,0.00,WeatherDisplay:10.37,2013-10-29 10:06:00,
2013-10-29 06:09:00,33.5,30.3,30.44,ESE,112,0.0,0.0,88,0.00,CLR,,0.00,WeatherDisplay:10.37,2013-10-29 10:09:00,
2013-10-29 06:11:00,33.4,30.2,30.44,ESE,113,0.0,0.0,88,0.00,CLR,,0.00,WeatherDisplay:10.37,2013-10-29 10:11:00,
2013-10-29 06:15:00,33.1,30.5,30.44,ESE,119,0.0,0.0,90,0.00,CLR,,0.00,WeatherDisplay:10.37,2013-10-29 10:15:00,
2013-10-29 06:16:00,32.9,30.3,30.44,ESE,119,0.0,0.0,90,0.00,CLR,,0.00,WeatherDisplay:10.37,2013-10-29 10:16:00,
2013-10-29 06:17:00,33.1,30.8,30.44,ESE,119,0.0,0.0,91,0.00,CLR,,0.00,WeatherDisplay:10.37,2013-10-29 10:17:00,
2013-10-29 06:18:00,33.1,30.8,30.44,ESE,119,0.0,0.0,91,0.00,CLR,,0.00,WeatherDisplay:10.37,2013-10-29 10:18:00,
2013-10-29 06:19:00,33.2,30.9,30.45,ESE,119,0.0,0.0,91,0.00,CLR,,0.00,WeatherDisplay:10.37,2013-10-29 10:19:00,
2013-10-29 06:21:00,33.2,30.9,30.45,ESE,119,0.0,0.0,91,0.00,CLR,,0.00,WeatherDisplay:10.37,2013-10-29 10:21:00,
2013-10-29 06:22:00,33.4,31.1,30.45,ESE,119,0.0,0.0,91,0.00,CLR,,0.00,WeatherDisplay:10.37,2013-10-29 10:22:00,
2013-10-29 06:24:00,33.4,30.8,30.45,ESE,120,0.0,0.0,90,0.00,CLR,,0.00,WeatherDisplay:10.37,2013-10-29 10:24:00,
2013-10-29 06:25:00,33.5,30.9,30.45,ESE,120,0.0,0.0,90,0.00,CLR,,0.00,WeatherDisplay:10.37,2013-10-29 10:25:00,
2013-10-29 06:26:00,33.5,30.9,30.45,ESE,120,0.0,0.0,90,0.00,CLR,,0.00,WeatherDisplay:10.37,2013-10-29 10:26:00,
2013-10-29 06:27:00,33.5,30.9,30.45,ESE,120,0.0,0.0,90,0.00,CLR,,0.00,WeatherDisplay:10.37,2013-10-29 10:27:00,
2013-10-29 06:29:00,33.5,30.9,30.45,ESE,120,0.0,0.0,90,0.00,CLR,,0.00,WeatherDisplay:10.37,2013-10-29 10:29:00,
2013-10-29 06:31:00,33.7,30.8,30.45,ESE,120,0.0,0.0,89,0.00,CLR,,0.00,WeatherDisplay:10.37,2013-10-29 10:31:00,
2013-10-29 06:32:00,33.7,30.8,30.45,ESE,120,0.0,0.0,89,0.00,CLR,,0.00,WeatherDisplay:10.37,2013-10-29 10:32:00,
2013-10-29 06:33:00,33.8,30.9,30.45,SE,124,0.0,0.0,89,0.00,CLR,,0.00,WeatherDisplay:10.37,2013-10-29 10:33:00,
2013-10-29 06:35:00,33.8,30.9,30.45,SE,124,0.0,0.0,89,0.00,CLR,,0.00,WeatherDisplay:10.37,2013-10-29 10:35:00,
2013-10-29 06:36:00,34.0,31.1,30.45,SE,126,0.0,0.0,89,0.00,CLR,,0.00,WeatherDisplay:10.37,2013-10-29 10:36:00,
2013-10-29 06:37:00,34.1,30.9,30.44,SE,126,0.0,0.0,88,0.00,CLR,,0.00,WeatherDisplay:10.37,2013-10-29 10:37:00,
2013-10-29 06:38:00,34.1,30.9,30.45,SE,126,0.0,0.0,88,0.00,CLR,,0.00,WeatherDisplay:10.37,2013-10-29 10:38:00,
2013-10-29 06:39:00,34.1,30.9,30.45,SE,126,0.0,0.0,88,0.00,CLR,,0.00,WeatherDisplay:10.37,2013-10-29 10:39:00,
2013-10-29 06:40:00,34.1,30.6,30.45,SE,126,0.0,0.0,87,0.00,CLR,,0.00,WeatherDisplay:10.37,2013-10-29 10:40:00,
2013-10-29 06:42:00,34.1,30.6,30.45,SE,126,0.0,0.0,87,0.00,CLR,,0.00,WeatherDisplay:10.37,2013-10-29 10:42:00,
2013-10-29 06:43:00,34.1,30.6,30.45,SE,126,0.0,0.0,87,0.00,CLR,,0.00,WeatherDisplay:10.37,2013-10-29 10:43:00,
2013-10-29 06:44:00,34.1,30.6,30.45,SE,126,0.0,0.0,87,0.00,CLR,,0.00,WeatherDisplay:10.37,2013-10-29 10:44:00,
2013-10-29 06:45:00,34.0,30.5,30.45,SE,126,0.0,0.0,87,0.00,CLR,,0.00,WeatherDisplay:10.37,2013-10-29 10:45:00,
2013-10-29 06:47:00,33.8,30.3,30.45,SE,126,0.0,0.0,87,0.00,CLR,,0.00,WeatherDisplay:10.37,2013-10-29 10:47:00,
2013-10-29 06:48:00,33.8,30.3,30.45,SE,126,0.0,0.0,87,0.00,CLR,,0.00,WeatherDisplay:10.37,2013-10-29 10:48:00,
2013-10-29 06:49:00,33.8,30.3,30.45,SE,126,0.0,0.0,87,0.00,CLR,,0.00,WeatherDisplay:10.37,2013-10-29 10:49:00,
2013-10-29 06:51:00,33.8,30.3,30.45,SE,126,0.0,0.0,87,0.00,CLR,,0.00,WeatherDisplay:10.37,2013-10-29 10:51:00,
2013-10-29 06:53:00,33.8,30.3,30.45,SE,126,0.0,0.0,87,0.00,CLR,,0.00,WeatherDisplay:10.37,2013-10-29 10:53:00,
2013-10-29 06:54:00,33.8,30.3,30.45,SE,126,0.0,0.0,87,0.00,CLR,,0.00,WeatherDisplay:10.37,2013-10-29 10:54:00,
2013-10-29 06:55:00,33.7,30.2,30.45,SE,126,0.0,0.0,87,0.00,CLR,,0.00,WeatherDisplay:10.37,2013-10-29 10:55:00,
2013-10-29 06:56:00,33.7,30.2,30.45,SE,126,0.0,0.0,87,0.00,CLR,,0.00,WeatherDisplay:10.37,2013-10-29 10:56:00,
2013-10-29 06:58:00,33.7,30.2,30.45,SE,130,0.0,0.0,87,0.00,CLR,,0.00,WeatherDisplay:10.37,2013-10-29 10:58:00,
2013-10-29 06:59:00,33.7,30.2,30.45,SE,134,0.0,0.0,87,0.00,CLR,,0.00,WeatherDisplay:10.37,2013-10-29 10:59:00,
2013-10-29 07:01:00,33.7,30.2,30.45,SSE,148,0.0,0.0,87,0.00,CLR,,0.00,WeatherDisplay:10.37,2013-10-29 11:01:00,
2013-10-29 07:04:00,33.5,30.3,30.45,SSE,148,0.0,0.0,88,0.00,CLR,,0.00,WeatherDisplay:10.37,2013-10-29 11:04:00,
2013-10-29 07:05:00,33.5,30.3,30.45,SSE,148,0.0,0.0,88,0.00,CLR,,0.00,WeatherDisplay:10.37,2013-10-29 11:05:00,
2013-10-29 07:07:00,33.5,30.3,30.45,SSE,148,0.0,0.0,88,0.00,CLR,,0.00,WeatherDisplay:10.37,2013-10-29 11:07:00,
2013-10-29 07:09:00,33.5,30.3,30.45,SSE,150,0.0,0.0,88,0.00,CLR,,0.00,WeatherDisplay:10.37,2013-10-29 11:09:00,
2013-10-29 07:10:00,33.4,30.2,30.46,SSE,150,0.0,0.0,88,0.00,CLR,,0.00,WeatherDisplay:10.37,2013-10-29 11:10:00,
2013-10-29 07:11:00,33.4,30.2,30.46,SSE,150,0.0,0.0,88,0.00,CLR,,0.00,WeatherDisplay:10.37,2013-10-29 11:11:00,
2013-10-29 07:12:00,33.4,30.2,30.46,SSE,150,0.0,0.0,88,0.00,CLR,,0.00,WeatherDisplay:10.37,2013-10-29 11:12:00,
2013-10-29 07:13:00,33.4,30.2,30.46,SSE,150,0.0,0.0,88,0.00,CLR,,0.00,WeatherDisplay:10.37,2013-10-29 11:13:00,
2013-10-29 07:15:00,33.2,30.3,30.46,SSE,150,0.0,0.0,89,0.00,CLR,,0.00,WeatherDisplay:10.37,2013-10-29 11:15:00,
2013-10-29 07:16:00,33.2,30.3,30.46,SSE,150,0.0,0.0,89,0.00,CLR,,0.00,WeatherDisplay:10.37,2013-10-29 11:16:00,
2013-10-29 07:17:00,33.2,30.3,30.46,SSE,150,0.0,0.0,89,0.00,CLR,,0.00,WeatherDisplay:10.37,2013-10-29 11:17:00,
2013-10-29 07:19:00,33.4,30.5,30.46,SSE,150,0.0,0.0,89,0.00,CLR,,0.00,WeatherDisplay:10.37,2013-10-29 11:19:00,
2013-10-29 07:20:00,33.4,30.5,30.46,SSE,150,0.0,0.0,89,0.00,CLR,,0.00,WeatherDisplay:10.37,2013-10-29 11:20:00,
2013-10-29 07:21:00,33.4,30.5,30.46,SSE,150,0.0,0.0,89,0.00,CLR,,0.00,WeatherDisplay:10.37,2013-10-29 11:21:00,
2013-10-29 07:22:00,33.4,30.2,30.45,SSE,150,0.0,0.0,88,0.00,CLR,,0.00,WeatherDisplay:10.37,2013-10-29 11:22:00,
2013-10-29 07:23:00,33.4,30.2,30.45,SSE,150,0.0,0.0,88,0.00,CLR,,0.00,WeatherDisplay:10.37,2013-10-29 11:23:00,
2013-10-29 07:24:00,33.4,30.2,30.45,SSE,150,0.0,0.0,88,0.00,CLR,,0.00,WeatherDisplay:10.37,2013-10-29 11:24:00,
2013-10-29 07:25:00,33.4,30.2,30.45,SSE,150,0.0,0.0,88,0.00,CLR,,0.00,WeatherDisplay:10.37,2013-10-29 11:25:00,
2013-10-29 07:26:00,33.4,30.2,30.45,SSE,150,0.0,0.0,88,0.00,CLR,,0.00,WeatherDisplay:10.37,2013-10-29 11:26:00,
2013-10-29 07:27:00,33.4,30.2,30.45,SSE,150,0.0,0.0,88,0.00,CLR,,0.00,WeatherDisplay:10.37,2013-10-29 11:27:00,
2013-10-29 07:30:00,33.4,30.2,30.45,SSE,150,0.0,0.0,88,0.00,CLR,,0.00,WeatherDisplay:10.37,2013-10-29 11:30:00,
2013-10-29 07:31:00,33.2,30.0,30.45,SSE,150,0.0,0.0,88,0.00,CLR,,0.00,WeatherDisplay:10.37,2013-10-29 11:31:00,
2013-10-29 07:33:00,33.2,30.3,30.45,SSE,150,0.0,0.0,89,0.00,CLR,,0.00,WeatherDisplay:10.37,2013-10-29 11:33:00,
2013-10-29 07:35:00,33.2,30.3,30.45,SSE,150,0.0,0.0,89,0.00,CLR,,0.00,WeatherDisplay:10.37,2013-10-29 11:35:00,
2013-10-29 07:36:00,33.1,30.2,30.45,SSE,150,0.0,0.0,89,0.00,CLR,,0.00,WeatherDisplay:10.37,2013-10-29 11:36:00,
2013-10-29 07:40:00,33.1,30.2,30.46,SSE,150,0.0,0.0,89,0.00,CLR,,0.00,WeatherDisplay:10.37,2013-10-29 11:40:00,
2013-10-29 07:41:00,33.1,30.2,30.46,SSE,150,0.0,0.0,89,0.00,CLR,,0.00,WeatherDisplay:10.37,2013-10-29 11:41:00,
2013-10-29 07:46:00,32.9,30.0,30.45,SSE,150,0.0,0.0,89,0.00,CLR,,0.00,WeatherDisplay:10.37,2013-10-29 11:46:00,
2013-10-29 07:47:00,32.9,30.3,30.45,SSE,150,0.0,0.0,90,0.00,CLR,,0.00,WeatherDisplay:10.37,2013-10-29 11:47:00,
2013-10-29 07:52:00,32.8,30.2,30.45,SSE,150,0.0,0.0,90,0.00,CLR,,0.00,WeatherDisplay:10.37,2013-10-29 11:52:00,
2013-10-29 07:57:00,32.9,30.3,30.45,SSE,150,0.0,0.0,90,0.00,CLR,,0.00,WeatherDisplay:10.37,2013-10-29 11:57:00,
2013-10-29 07:58:00,32.9,30.3,30.45,SSE,150,0.0,0.0,90,0.00,CLR,,0.00,WeatherDisplay:10.37,2013-10-29 11:58:00,
2013-10-29 08:02:00,33.1,30.5,30.45,SSE,150,0.0,0.0,90,0.00,CLR,,0.00,WeatherDisplay:10.37,2013-10-29 12:02:00,
2013-10-29 08:03:00,33.1,30.5,30.45,SSE,150,0.0,0.0,90,0.00,CLR,,0.00,WeatherDisplay:10.37,2013-10-29 12:03:00,
2013-10-29 08:04:00,33.2,30.3,30.45,SSE,150,0.0,0.0,89,0.00,CLR,,0.00,WeatherDisplay:10.37,2013-10-29 12:04:00,
2013-10-29 08:05:00,33.2,30.3,30.45,SSE,150,0.0,0.0,89,0.00,CLR,,0.00,WeatherDisplay:10.37,2013-10-29 12:05:00,
2013-10-29 08:06:00,33.2,30.3,30.45,SSE,150,0.0,0.0,89,0.00,CLR,,0.00,WeatherDisplay:10.37,2013-10-29 12:06:00,
2013-10-29 08:07:00,33.2,30.3,30.45,SSE,150,0.0,0.0,89,0.00,CLR,,0.00,WeatherDisplay:10.37,2013-10-29 12:07:00,
2013-10-29 08:09:00,33.2,30.3,30.46,SSE,150,0.0,0.0,89,0.00,CLR,,0.00,WeatherDisplay:10.37,2013-10-29 12:09:00,
2013-10-29 08:10:00,33.2,30.3,30.46,SSE,150,0.0,0.0,89,0.00,CLR,,0.00,WeatherDisplay:10.37,2013-10-29 12:10:00,
2013-10-29 08:11:00,33.2,30.3,30.46,SSE,150,0.0,0.0,89,0.00,CLR,,0.00,WeatherDisplay:10.37,2013-10-29 12:11:00,
2013-10-29 08:12:00,33.4,30.5,30.46,SSE,150,0.0,0.0,89,0.00,CLR,,0.00,WeatherDisplay:10.37,2013-10-29 12:12:00,
2013-10-29 08:14:00,33.4,30.5,30.46,SSE,150,0.0,0.0,89,0.00,CLR,,0.00,WeatherDisplay:10.37,2013-10-29 12:14:00,
2013-10-29 08:15:00,33.4,30.5,30.46,SSE,150,0.0,0.0,89,0.00,CLR,,0.00,WeatherDisplay:10.37,2013-10-29 12:15:00,
2013-10-29 08:16:00,33.5,30.6,30.46,SSE,150,0.0,0.0,89,0.00,CLR,,0.00,WeatherDisplay:10.37,2013-10-29 12:16:00,
2013-10-29 08:17:00,33.5,30.6,30.46,SSE,150,0.0,0.0,89,0.00,CLR,,0.00,WeatherDisplay:10.37,2013-10-29 12:17:00,
2013-10-29 08:18:00,33.5,30.6,30.46,SSE,150,0.0,0.0,89,0.00,CLR,,0.00,WeatherDisplay:10.37,2013-10-29 12:18:00,
2013-10-29 08:20:00,33.7,30.8,30.46,SSE,151,0.0,0.0,89,0.00,CLR,,0.00,WeatherDisplay:10.37,2013-10-29 12:20:00,
2013-10-29 08:21:00,33.8,30.9,30.46,SSE,151,0.0,0.0,89,0.00,CLR,,0.00,WeatherDisplay:10.37,2013-10-29 12:21:00,
2013-10-29 08:22:00,33.8,30.9,30.46,SSE,151,0.0,0.0,89,0.00,CLR,,0.00,WeatherDisplay:10.37,2013-10-29 12:22:00,
2013-10-29 08:23:00,34.0,30.8,30.46,SSE,151,0.0,0.0,88,0.00,CLR,,0.00,WeatherDisplay:10.37,2013-10-29 12:23:00,
2013-10-29 08:25:00,34.1,30.9,30.46,SSE,151,0.0,0.0,88,0.00,CLR,,0.00,WeatherDisplay:10.37,2013-10-29 12:25:00,
2013-10-29 08:26:00,34.1,30.9,30.46,SSE,151,0.0,0.0,88,0.00,CLR,,0.00,WeatherDisplay:10.37,2013-10-29 12:26:00,
2013-10-29 08:29:00,34.3,31.1,30.46,SSE,151,0.0,0.0,88,0.00,CLR,,0.00,WeatherDisplay:10.37,2013-10-29 12:29:00,
2013-10-29 08:31:00,34.4,30.9,30.46,SSE,151,0.0,0.0,87,0.00,CLR,,0.00,WeatherDisplay:10.37,2013-10-29 12:31:00,
2013-10-29 08:34:00,34.6,31.1,30.46,SSE,151,0.0,0.0,87,0.00,CLR,,0.00,WeatherDisplay:10.37,2013-10-29 12:34:00,
2013-10-29 08:35:00,34.6,31.1,30.46,SSE,151,0.0,0.0,87,0.00,CLR,,0.00,WeatherDisplay:10.37,2013-10-29 12:35:00,
2013-10-29 08:36:00,34.7,30.9,30.46,SSE,151,0.0,0.0,86,0.00,CLR,,0.00,WeatherDisplay:10.37,2013-10-29 12:36:00,
2013-10-29 08:40:00,34.9,31.1,30.46,SSE,151,0.0,0.0,86,0.00,CLR,,0.00,WeatherDisplay:10.37,2013-10-29 12:40:00,
2013-10-29 08:41:00,34.9,31.1,30.46,SSE,151,0.0,0.0,86,0.00,CLR,,0.00,WeatherDisplay:10.37,2013-10-29 12:41:00,
2013-10-29 08:42:00,35.0,31.2,30.46,SSE,151,0.0,0.0,86,0.00,CLR,,0.00,WeatherDisplay:10.37,2013-10-29 12:42:00,
2013-10-29 08:45:00,35.3,31.5,30.47,SSE,151,0.0,0.0,86,0.00,CLR,,0.00,WeatherDisplay:10.37,2013-10-29 12:45:00,
2013-10-29 08:46:00,35.3,31.5,30.47,SSE,151,0.0,0.0,86,0.00,CLR,,0.00,WeatherDisplay:10.37,2013-10-29 12:46:00,
2013-10-29 08:47:00,35.5,31.7,30.47,SSE,151,0.0,0.0,86,0.00,CLR,,0.00,WeatherDisplay:10.37,2013-10-29 12:47:00,
2013-10-29 08:48:00,35.5,31.7,30.47,SSE,151,0.0,0.0,86,0.00,CLR,,0.00,WeatherDisplay:10.37,2013-10-29 12:48:00,
2013-10-29 08:51:00,35.6,31.5,30.47,SSE,151,0.0,0.0,85,0.00,CLR,,0.00,WeatherDisplay:10.37,2013-10-29 12:51:00,
2013-10-29 08:53:00,35.6,31.5,30.47,SSE,151,0.0,0.0,85,0.00,CLR,,0.00,WeatherDisplay:10.37,2013-10-29 12:53:00,
2013-10-29 08:54:00,35.6,31.5,30.47,SSE,151,0.0,0.0,85,0.00,CLR,,0.00,WeatherDisplay:10.37,2013-10-29 12:54:00,
2013-10-29 08:56:00,35.8,31.4,30.47,SSE,151,0.0,0.0,84,0.00,CLR,,0.00,WeatherDisplay:10.37,2013-10-29 12:56:00,
2013-10-29 08:57:00,35.9,31.5,30.47,SSE,151,0.0,0.0,84,0.00,CLR,,0.00,WeatherDisplay:10.37,2013-10-29 12:57:00,
2013-10-29 08:58:00,35.9,31.5,30.47,SSE,151,0.0,0.0,84,0.00,CLR,,0.00,WeatherDisplay:10.37,2013-10-29 12:58:00,
2013-10-29 09:00:00,35.9,31.5,30.47,SSE,151,0.0,0.0,84,0.00,CLR,,0.00,WeatherDisplay:10.37,2013-10-29 13:00:00,
2013-10-29 09:02:00,36.2,31.5,30.47,SSE,151,0.0,0.0,83,0.00,CLR,,0.00,WeatherDisplay:10.37,2013-10-29 13:02:00,
2013-10-29 09:03:00,36.2,31.5,30.47,SSE,151,0.0,0.0,83,0.00,CLR,,0.00,WeatherDisplay:10.37,2013-10-29 13:03:00,
2013-10-29 09:04:00,36.3,31.6,30.47,SSE,151,0.0,0.0,83,0.00,CLR,,0.00,WeatherDisplay:10.37,2013-10-29 13:04:00,
2013-10-29 09:05:00,36.5,31.8,30.47,SSE,151,0.0,0.0,83,0.00,CLR,,0.00,WeatherDisplay:10.37,2013-10-29 13:05:00,
2013-10-29 09:07:00,36.6,31.9,30.47,SSE,151,0.0,0.0,83,0.00,CLR,,0.00,WeatherDisplay:10.37,2013-10-29 13:07:00,
2013-10-29 09:08:00,36.8,32.1,30.47,SSE,151,0.0,0.0,83,0.00,CLR,,0.00,WeatherDisplay:10.37,2013-10-29 13:08:00,
2013-10-29 09:09:00,36.9,32.2,30.47,SSE,151,0.0,0.0,83,0.00,CLR,,0.00,WeatherDisplay:10.37,2013-10-29 13:09:00,
2013-10-29 09:10:00,37.0,32.0,30.47,SSE,151,0.0,0.0,82,0.00,CLR,,0.00,WeatherDisplay:10.37,2013-10-29 13:10:00,
2013-10-29 09:11:00,37.0,32.0,30.47,SSE,151,0.0,0.0,82,0.00,CLR,,0.00,WeatherDisplay:10.37,2013-10-29 13:11:00,
2013-10-29 09:12:00,37.2,31.9,30.47,SSE,151,1.0,1.0,81,0.00,CLR,,0.00,WeatherDisplay:10.37,2013-10-29 13:12:00,
2013-10-29 09:13:00,37.2,31.9,30.47,SSE,151,2.3,2.3,81,0.00,CLR,,0.00,WeatherDisplay:10.37,2013-10-29 13:13:00,
2013-10-29 09:14:00,37.3,32.0,30.47,SSE,151,2.3,0.0,81,0.00,CLR,,0.00,WeatherDisplay:10.37,2013-10-29 13:14:00,
2013-10-29 09:15:00,37.3,32.0,30.47,SSE,151,1.1,1.1,81,0.00,CLR,,0.00,WeatherDisplay:10.37,2013-10-29 13:15:00,
2013-10-29 09:16:00,37.3,32.0,30.47,SSE,151,1.1,1.1,81,0.00,CLR,,0.00,WeatherDisplay:10.37,2013-10-29 13:16:00,
2013-10-29 09:18:00,37.5,32.2,30.47,SSE,151,0.0,0.0,81,0.00,CLR,,0.00,WeatherDisplay:10.37,2013-10-29 13:18:00,
2013-10-29 09:19:00,37.6,32.0,30.47,SSE,151,0.0,0.0,80,0.00,CLR,,0.00,WeatherDisplay:10.37,2013-10-29 13:19:00,
2013-10-29 09:20:00,37.6,32.0,30.47,SSE,151,0.0,0.0,80,0.00,CLR,,0.00,WeatherDisplay:10.37,2013-10-29 13:20:00,
2013-10-29 09:21:00,37.8,32.2,30.47,SSE,151,0.0,0.0,80,0.00,CLR,,0.00,WeatherDisplay:10.37,2013-10-29 13:21:00,
2013-10-29 09:22:00,37.9,32.3,30.47,SSE,151,0.0,0.0,80,0.00,CLR,,0.00,WeatherDisplay:10.37,2013-10-29 13:22:00,
2013-10-29 09:24:00,38.0,32.4,30.47,SSE,151,0.0,0.0,80,0.00,CLR,,0.00,WeatherDisplay:10.37,2013-10-29 13:24:00,
2013-10-29 09:25:00,38.2,32.6,30.47,SSE,151,0.0,0.0,80,0.00,CLR,,0.00,WeatherDisplay:10.37,2013-10-29 13:25:00,
2013-10-29 09:26:00,38.3,32.7,30.47,SSE,151,0.0,0.0,80,0.00,CLR,,0.00,WeatherDisplay:10.37,2013-10-29 13:26:00,
2013-10-29 09:27:00,38.3,32.4,30.47,SSE,151,0.0,0.0,79,0.00,CLR,,0.00,WeatherDisplay:10.37,2013-10-29 13:27:00,
2013-10-29 09:29:00,38.6,32.6,30.47,SSE,151,0.0,0.0,79,0.00,CLR,,0.00,WeatherDisplay:10.37,2013-10-29 13:29:00,
2013-10-29 09:30:00,38.9,32.9,30.47,SSE,151,0.0,0.0,79,0.00,CLR,,0.00,WeatherDisplay:10.37,2013-10-29 13:30:00,
2013-10-29 09:33:00,39.3,33.0,30.47,SSE,151,0.0,0.0,78,0.00,CLR,,0.00,WeatherDisplay:10.37,2013-10-29 13:33:00,
2013-10-29 09:34:00,39.6,33.3,30.47,SSE,151,0.0,0.0,78,0.00,CLR,,0.00,WeatherDisplay:10.37,2013-10-29 13:34:00,
2013-10-29 09:35:00,39.6,33.3,30.47,SSE,151,0.0,0.0,78,0.00,CLR,,0.00,WeatherDisplay:10.37,2013-10-29 13:35:00,
2013-10-29 09:36:00,39.8,33.5,30.47,SSE,151,0.0,0.0,78,0.00,CLR,,0.00,WeatherDisplay:10.37,2013-10-29 13:36:00,
2013-10-29 09:38:00,40.1,33.5,30.47,SSE,151,0.0,0.0,77,0.00,CLR,,0.00,WeatherDisplay:10.37,2013-10-29 13:38:00,
2013-10-29 09:39:00,40.3,33.3,30.47,SSE,151,0.0,0.0,76,0.00,CLR,,0.00,WeatherDisplay:10.37,2013-10-29 13:39:00,
2013-10-29 09:40:00,40.5,33.5,30.47,SSE,151,0.0,0.0,76,0.00,CLR,,0.00,WeatherDisplay:10.37,2013-10-29 13:40:00,
2013-10-29 09:44:00,40.9,33.6,30.47,SSE,151,0.0,0.0,75,0.00,CLR,,0.00,WeatherDisplay:10.37,2013-10-29 13:44:00,
2013-10-29 09:45:00,41.2,33.5,30.47,SSE,151,0.0,0.0,74,0.00,CLR,,0.00,WeatherDisplay:10.37,2013-10-29 13:45:00,
2013-10-29 09:46:00,41.2,33.5,30.47,SSE,151,0.0,0.0,74,0.00,CLR,,0.00,WeatherDisplay:10.37,2013-10-29 13:46:00,
2013-10-29 09:49:00,41.6,33.6,30.47,SSE,151,0.0,0.0,73,0.00,CLR,,0.00,WeatherDisplay:10.37,2013-10-29 13:49:00,
2013-10-29 09:50:00,41.8,33.8,30.47,SSE,151,0.0,0.0,73,0.00,CLR,,0.00,WeatherDisplay:10.37,2013-10-29 13:50:00,
2013-10-29 09:51:00,41.9,33.9,30.47,SSE,151,0.0,0.0,73,0.00,CLR,,0.00,WeatherDisplay:10.37,2013-10-29 13:51:00,
2013-10-29 09:54:00,42.5,34.1,30.46,SSE,151,0.0,0.0,72,0.00,CLR,,0.00,WeatherDisplay:10.37,2013-10-29 13:54:00,
2013-10-29 09:55:00,42.5,34.1,30.46,SSE,151,0.0,0.0,72,0.00,CLR,,0.00,WeatherDisplay:10.37,2013-10-29 13:55:00,
2013-10-29 09:56:00,42.6,34.2,30.46,SSE,151,0.0,0.0,72,0.00,CLR,,0.00,WeatherDisplay:10.37,2013-10-29 13:56:00,
2013-10-29 09:57:00,42.9,34.5,30.46,SSE,151,0.0,0.0,72,0.00,CLR,,0.00,WeatherDisplay:10.37,2013-10-29 13:57:00,
2013-10-29 09:58:00,42.9,34.1,30.46,SSE,151,0.0,0.0,71,0.00,CLR,,0.00,WeatherDisplay:10.37,2013-10-29 13:58:00,
2013-10-29 10:00:00,43.3,34.2,30.46,SSE,151,0.0,0.0,70,0.00,CLR,,0.00,WeatherDisplay:10.37,2013-10-29 14:00:00,
2013-10-29 10:01:00,43.3,34.2,30.46,SSE,151,0.0,0.0,70,0.00,CLR,,0.00,WeatherDisplay:10.37,2013-10-29 14:01:00,
2013-10-29 10:02:00,43.5,34.4,30.46,SSE,151,0.0,0.0,70,0.00,CLR,,0.00,WeatherDisplay:10.37,2013-10-29 14:02:00,
2013-10-29 10:03:00,43.5,34.4,30.46,SSE,151,0.0,0.0,70,0.00,CLR,,0.00,WeatherDisplay:10.37,2013-10-29 14:03:00,
2013-10-29 10:06:00,43.8,34.3,30.46,SSE,151,0.0,0.0,69,0.00,CLR,,0.00,WeatherDisplay:10.37,2013-10-29 14:06:00,
2013-10-29 10:07:00,43.9,34.4,30.46,SSE,151,0.0,0.0,69,0.00,CLR,,0.00,WeatherDisplay:10.37,2013-10-29 14:07:00,
2013-10-29 10:08:00,43.9,34.4,30.46,SSE,151,0.0,0.0,69,0.00,CLR,,0.00,WeatherDisplay:10.37,2013-10-29 14:08:00,
2013-10-29 10:11:00,44.1,34.2,30.46,SSE,151,0.0,0.0,68,0.00,CLR,,0.00,WeatherDisplay:10.37,2013-10-29 14:11:00,
2013-10-29 10:13:00,44.1,34.2,30.46,SSE,151,0.0,0.0,68,0.00,CLR,,0.00,WeatherDisplay:10.37,2013-10-29 14:13:00,
2013-10-29 10:14:00,44.1,34.2,30.46,SSE,151,0.0,0.0,68,0.00,CLR,,0.00,WeatherDisplay:10.37,2013-10-29 14:14:00,
2013-10-29 10:16:00,44.1,34.2,30.46,SSE,151,0.0,0.0,68,0.00,CLR,,0.00,WeatherDisplay:10.37,2013-10-29 14:16:00,
2013-10-29 10:18:00,44.1,34.6,30.46,SSE,151,0.0,0.0,69,0.00,CLR,,0.00,WeatherDisplay:10.37,2013-10-29 14:18:00,
2013-10-29 10:19:00,44.1,34.2,30.46,SSE,151,0.0,0.0,68,0.00,CLR,,0.00,WeatherDisplay:10.37,2013-10-29 14:19:00,
2013-10-29 10:20:00,44.1,34.6,30.46,SSE,151,0.0,0.0,69,0.00,CLR,,0.00,WeatherDisplay:10.37,2013-10-29 14:20:00,
2013-10-29 10:21:00,44.1,34.2,30.46,SSE,151,0.0,0.0,68,0.00,CLR,,0.00,WeatherDisplay:10.37,2013-10-29 14:21:00,
2013-10-29 10:23:00,44.1,34.2,30.46,SSE,151,0.0,0.0,68,0.00,CLR,,0.00,WeatherDisplay:10.37,2013-10-29 14:23:00,
2013-10-29 10:24:00,44.1,34.2,30.46,SSE,151,0.0,0.0,68,0.00,CLR,,0.00,WeatherDisplay:10.37,2013-10-29 14:24:00,
2013-10-29 10:25:00,44.1,34.2,30.46,SSE,151,0.0,0.0,68,0.00,CLR,,0.00,WeatherDisplay:10.37,2013-10-29 14:25:00,
2013-10-29 10:26:00,44.1,34.2,30.46,SSE,151,0.0,0.0,68,0.00,CLR,,0.00,WeatherDisplay:10.37,2013-10-29 14:26:00,
2013-10-29 10:27:00,44.1,34.2,30.46,SSE,151,0.0,0.0,68,0.00,CLR,,0.00,WeatherDisplay:10.37,2013-10-29 14:27:00,
2013-10-29 10:29:00,44.2,34.3,30.46,SSE,151,0.0,0.0,68,0.00,CLR,,0.00,WeatherDisplay:10.37,2013-10-29 14:29:00,
2013-10-29 10:30:00,44.2,34.3,30.46,SSE,151,0.0,0.0,68,0.00,CLR,,0.00,WeatherDisplay:10.37,2013-10-29 14:30:00,
2013-10-29 10:31:00,44.2,33.9,30.46,SSE,151,0.0,0.0,67,0.00,CLR,,0.00,WeatherDisplay:10.37,2013-10-29 14:31:00,
2013-10-29 10:32:00,44.3,34.4,30.46,SSE,151,0.0,0.0,68,0.00,CLR,,0.00,WeatherDisplay:10.37,2013-10-29 14:32:00,
2013-10-29 10:33:00,44.5,34.6,30.46,SSE,151,0.0,0.0,68,0.00,CLR,,0.00,WeatherDisplay:10.37,2013-10-29 14:33:00,
2013-10-29 10:35:00,44.5,34.6,30.46,SSE,151,0.0,0.0,68,0.00,CLR,,0.00,WeatherDisplay:10.37,2013-10-29 14:35:00,
2013-10-29 10:36:00,44.6,34.7,30.46,SSE,151,0.0,0.0,68,0.00,CLR,,0.00,WeatherDisplay:10.37,2013-10-29 14:36:00,
2013-10-29 10:37:00,44.8,34.5,30.46,SSE,151,0.0,0.0,67,0.00,CLR,,0.00,WeatherDisplay:10.37,2013-10-29 14:37:00,
2013-10-29 10:39:00,44.9,34.6,30.46,SSE,152,0.0,0.0,67,0.00,CLR,,0.00,WeatherDisplay:10.37,2013-10-29 14:39:00,
2013-10-29 10:40:00,45.1,34.8,30.46,SSE,152,0.0,0.0,67,0.00,CLR,,0.00,WeatherDisplay:10.37,2013-10-29 14:40:00,
2013-10-29 10:41:00,45.2,34.9,30.46,SSE,152,0.0,0.0,67,0.00,CLR,,0.00,WeatherDisplay:10.37,2013-10-29 14:41:00,
2013-10-29 10:42:00,45.2,34.9,30.46,SSE,152,0.0,0.0,67,0.00,CLR,,0.00,WeatherDisplay:10.37,2013-10-29 14:42:00,
2013-10-29 10:44:00,45.4,34.7,30.46,SSE,152,0.0,0.0,66,0.00,CLR,,0.00,WeatherDisplay:10.37,2013-10-29 14:44:00,
2013-10-29 10:45:00,45.5,34.4,30.46,SSE,152,0.0,0.0,65,0.00,CLR,,0.00,WeatherDisplay:10.37,2013-10-29 14:45:00,
2013-10-29 10:48:00,45.7,34.2,30.46,SSE,152,0.0,0.0,64,0.00,CLR,,0.00,WeatherDisplay:10.37,2013-10-29 14:48:00,
2013-10-29 10:49:00,45.5,33.6,30.46,SSE,152,0.0,0.0,63,0.00,CLR,,0.00,WeatherDisplay:10.37,2013-10-29 14:49:00,
2013-10-29 10:50:00,45.5,33.2,30.46,SSE,152,0.0,0.0,62,0.00,CLR,,0.00,WeatherDisplay:10.37,2013-10-29 14:50:00,
2013-10-29 10:51:00,45.5,32.8,30.46,SSE,152,0.0,0.0,61,0.00,CLR,,0.00,WeatherDisplay:10.37,2013-10-29 14:51:00,
2013-10-29 10:53:00,45.7,33.4,30.46,SSE,152,0.0,0.0,62,0.00,CLR,,0.00,WeatherDisplay:10.37,2013-10-29 14:53:00,
2013-10-29 10:54:00,45.7,33.0,30.46,SSE,152,0.0,0.0,61,0.00,CLR,,0.00,WeatherDisplay:10.37,2013-10-29 14:54:00,
2013-10-29 10:55:00,46.0,33.7,30.46,SSE,152,0.0,0.0,62,0.00,CLR,,0.00,WeatherDisplay:10.37,2013-10-29 14:55:00,
2013-10-29 10:56:00,46.1,33.4,30.46,SSE,152,0.0,0.0,61,0.00,CLR,,0.00,WeatherDisplay:10.37,2013-10-29 14:56:00,
2013-10-29 10:58:00,46.1,33.0,30.46,SSE,152,0.0,0.0,60,0.00,CLR,,0.00,WeatherDisplay:10.37,2013-10-29 14:58:00,
2013-10-29 10:59:00,46.2,32.7,30.46,SSE,152,0.0,0.0,59,0.00,CLR,,0.00,WeatherDisplay:10.37,2013-10-29 14:59:00,
2013-10-29 11:00:00,46.4,32.8,30.46,SSE,152,0.0,0.0,59,0.00,CLR,,0.00,WeatherDisplay:10.37,2013-10-29 15:00:00,
2013-10-29 11:02:00,46.5,32.9,30.46,SSE,147,0.0,0.0,59,0.00,CLR,,0.00,WeatherDisplay:10.37,2013-10-29 15:02:00,
2013-10-29 11:03:00,46.5,32.5,30.46,SSE,147,0.0,0.0,58,0.00,CLR,,0.00,WeatherDisplay:10.37,2013-10-29 15:03:00,
2013-10-29 11:04:00,46.4,32.0,30.46,SSE,147,0.0,0.0,57,0.00,CLR,,0.00,WeatherDisplay:10.37,2013-10-29 15:04:00,
2013-10-29 11:05:00,46.2,31.8,30.46,SSE,147,0.0,0.0,57,0.00,CLR,,0.00,WeatherDisplay:10.37,2013-10-29 15:05:00,
2013-10-29 11:07:00,46.2,32.7,30.46,SSE,147,0.0,0.0,59,0.00,CLR,,0.00,WeatherDisplay:10.37,2013-10-29 15:07:00,
2013-10-29 11:08:00,46.2,33.1,30.46,SSE,147,2.3,2.3,60,0.00,CLR,,0.00,WeatherDisplay:10.37,2013-10-29 15:08:00,
2013-10-29 11:09:00,46.4,32.8,30.46,SSE,147,2.3,0.0,59,0.00,CLR,,0.00,WeatherDisplay:10.37,2013-10-29 15:09:00,
2013-10-29 11:10:00,46.4,32.4,30.46,SSE,147,0.0,0.0,58,0.00,CLR,,0.00,WeatherDisplay:10.37,2013-10-29 15:10:00,
2013-10-29 11:11:00,46.4,32.4,30.46,SSE,147,0.0,0.0,58,0.00,CLR,,0.00,WeatherDisplay:10.37,2013-10-29 15:11:00,
2013-10-29 11:12:00,46.4,32.4,30.46,SSE,147,0.0,0.0,58,0.00,CLR,,0.00,WeatherDisplay:10.37,2013-10-29 15:12:00,
2013-10-29 11:14:00,46.8,32.8,30.45,SSE,147,0.0,0.0,58,0.00,CLR,,0.00,WeatherDisplay:10.37,2013-10-29 15:14:00,
2013-10-29 11:15:00,46.8,32.8,30.45,SSE,147,0.0,0.0,58,0.00,CLR,,0.00,WeatherDisplay:10.37,2013-10-29 15:15:00,
2013-10-29 11:16:00,47.0,32.5,30.45,SSE,147,0.0,0.0,57,0.00,CLR,,0.00,WeatherDisplay:10.37,2013-10-29 15:16:00,
2013-10-29 11:17:00,47.0,32.5,30.45,SSE,147,0.0,0.0,57,0.00,CLR,,0.00,WeatherDisplay:10.37,2013-10-29 15:17:00,
2013-10-29 11:20:00,47.1,32.6,30.46,SSE,147,0.0,0.0,57,0.00,CLR,,0.00,WeatherDisplay:10.37,2013-10-29 15:20:00,
2013-10-29 11:21:00,47.3,32.8,30.45,SSE,147,0.0,0.0,57,0.00,CLR,,0.00,WeatherDisplay:10.37,2013-10-29 15:21:00,
2013-10-29 11:22:00,47.4,33.4,30.45,SSE,147,0.0,0.0,58,0.00,CLR,,0.00,WeatherDisplay:10.37,2013-10-29 15:22:00,
2013-10-29 11:25:00,48.0,33.0,30.45,SSE,147,0.0,0.0,56,0.00,CLR,,0.00,WeatherDisplay:10.37,2013-10-29 15:25:00,
2013-10-29 11:26:00,48.2,32.8,30.45,SSE,147,0.0,0.0,55,0.00,CLR,,0.00,WeatherDisplay:10.37,2013-10-29 15:26:00,
2013-10-29 11:27:00,48.2,32.3,30.45,SSE,147,0.0,0.0,54,0.00,CLR,,0.00,WeatherDisplay:10.37,2013-10-29 15:27:00,
2013-10-29 11:28:00,48.3,32.9,30.45,SSE,147,0.0,0.0,55,0.00,CLR,,0.00,WeatherDisplay:10.37,2013-10-29 15:28:00,
2013-10-29 11:30:00,48.3,32.9,30.45,SSE,147,0.0,0.0,55,0.00,CLR,,0.00,WeatherDisplay:10.37,2013-10-29 15:30:00,
2013-10-29 11:31:00,48.3,32.9,30.45,SSE,147,0.0,0.0,55,0.00,CLR,,0.00,WeatherDisplay:10.37,2013-10-29 15:31:00,
2013-10-29 11:32:00,48.3,33.3,30.45,SSE,147,0.0,0.0,56,0.00,CLR,,0.00,WeatherDisplay:10.37,2013-10-29 15:32:00,
2013-10-29 11:33:00,48.3,32.9,30.46,SSE,147,0.0,0.0,55,0.00,CLR,,0.00,WeatherDisplay:10.37,2013-10-29 15:33:00,
2013-10-29 11:35:00,48.3,32.9,30.46,WSW,239,2.3,0.0,55,0.00,CLR,,0.00,WeatherDisplay:10.37,2013-10-29 15:35:00,
2013-10-29 11:36:00,48.3,32.9,30.46,WSW,239,0.0,0.0,55,0.00,CLR,,0.00,WeatherDisplay:10.37,2013-10-29 15:36:00,
2013-10-29 11:38:00,48.5,33.5,30.45,WSW,239,0.0,0.0,56,0.00,CLR,,0.00,WeatherDisplay:10.37,2013-10-29 15:38:00,
2013-10-29 11:40:00,48.8,33.3,30.45,WSW,239,0.0,0.0,55,0.00,CLR,,0.00,WeatherDisplay:10.37,2013-10-29 15:40:00,
2013-10-29 11:41:00,48.8,33.3,30.45,WSW,239,0.0,0.0,55,0.00,CLR,,0.00,WeatherDisplay:10.37,2013-10-29 15:41:00,
2013-10-29 11:43:00,49.1,33.2,30.45,WSW,239,0.0,0.0,54,0.00,CLR,,0.00,WeatherDisplay:10.37,2013-10-29 15:43:00,
2013-10-29 11:44:00,49.1,33.2,30.45,WSW,239,0.0,0.0,54,0.00,CLR,,0.00,WeatherDisplay:10.37,2013-10-29 15:44:00,
2013-10-29 11:47:00,49.2,33.3,30.45,SW,234,0.0,0.0,54,0.00,CLR,,0.00,WeatherDisplay:10.37,2013-10-29 15:47:00,
2013-10-29 11:48:00,49.2,33.3,30.45,SW,234,0.0,0.0,54,0.00,CLR,,0.00,WeatherDisplay:10.37,2013-10-29 15:48:00,
2013-10-29 11:49:00,49.2,33.3,30.45,SW,234,0.0,0.0,54,0.00,CLR,,0.00,WeatherDisplay:10.37,2013-10-29 15:49:00,
2013-10-29 11:52:00,49.2,33.3,30.45,WSW,243,0.0,0.0,54,0.00,CLR,,0.00,WeatherDisplay:10.37,2013-10-29 15:52:00,
2013-10-29 11:53:00,49.2,33.3,30.45,WSW,243,0.0,0.0,54,0.00,CLR,,0.00,WeatherDisplay:10.37,2013-10-29 15:53:00,
2013-10-29 11:55:00,48.9,33.0,30.45,NW,315,0.0,0.0,54,0.00,CLR,,0.00,WeatherDisplay:10.37,2013-10-29 15:55:00,
2013-10-29 11:56:00,48.8,32.9,30.46,NW,316,0.0,0.0,54,0.00,CLR,,0.00,WeatherDisplay:10.37,2013-10-29 15:56:00,
2013-10-29 11:57:00,48.8,32.9,30.46,NW,316,0.0,0.0,54,0.00,CLR,,0.00,WeatherDisplay:10.37,2013-10-29 15:57:00,
2013-10-29 11:58:00,48.8,32.9,30.46,NW,318,0.0,0.0,54,0.00,CLR,,0.00,WeatherDisplay:10.37,2013-10-29 15:58:00,
2013-10-29 12:00:00,48.5,32.6,30.46,North,350,4.6,4.6,54,0.00,CLR,,0.00,WeatherDisplay:10.37,2013-10-29 16:00:00,
2013-10-29 12:01:00,48.5,33.1,30.46,North,350,2.3,2.3,55,0.00,CLR,,0.00,WeatherDisplay:10.37,2013-10-29 16:01:00,
2013-10-29 12:02:00,48.5,33.1,30.46,North,350,1.1,1.1,55,0.00,CLR,,0.00,WeatherDisplay:10.37,2013-10-29 16:02:00,
2013-10-29 12:03:00,48.5,33.5,30.46,North,350,1.1,1.1,56,0.00,CLR,,0.00,WeatherDisplay:10.37,2013-10-29 16:03:00,
2013-10-29 12:04:00,48.5,33.5,30.46,North,350,1.1,0.0,56,0.00,CLR,,0.00,WeatherDisplay:10.37,2013-10-29 16:04:00,
2013-10-29 12:05:00,48.5,33.1,30.46,North,350,0.0,0.0,55,0.00,CLR,,0.00,WeatherDisplay:10.37,2013-10-29 16:05:00,
2013-10-29 12:07:00,48.6,33.1,30.46,North,350,0.0,0.0,55,0.00,CLR,,0.00,WeatherDisplay:10.37,2013-10-29 16:07:00,
2013-10-29 12:08:00,48.6,33.6,30.46,North,350,0.0,0.0,56,0.00,CLR,,0.00,WeatherDisplay:10.37,2013-10-29 16:08:00,
2013-10-29 12:09:00,48.6,33.1,30.46,North,350,0.0,0.0,55,0.00,CLR,,0.00,WeatherDisplay:10.37,2013-10-29 16:09:00,
2013-10-29 12:11:00,48.6,32.7,30.46,North,350,0.0,0.0,54,0.00,CLR,,0.00,WeatherDisplay:10.37,2013-10-29 16:11:00,
2013-10-29 12:12:00,48.8,32.9,30.46,North,350,0.0,0.0,54,0.00,CLR,,0.00,WeatherDisplay:10.37,2013-10-29 16:12:00,
2013-10-29 12:13:00,48.8,33.3,30.46,North,350,0.0,0.0,55,0.00,CLR,,0.00,WeatherDisplay:10.37,2013-10-29 16:13:00,
2013-10-29 12:15:00,48.9,33.4,30.46,North,350,0.0,0.0,55,0.00,CLR,,0.00,WeatherDisplay:10.37,2013-10-29 16:15:00,
2013-10-29 12:17:00,49.1,33.2,30.46,North,350,0.0,0.0,54,0.00,CLR,,0.00,WeatherDisplay:10.37,2013-10-29 16:17:00,
2013-10-29 12:18:00,49.2,33.3,30.45,North,350,0.0,0.0,54,0.00,CLR,,0.00,WeatherDisplay:10.37,2013-10-29 16:18:00,
2013-10-29 12:19:00,49.2,33.3,30.45,North,350,0.0,0.0,54,0.00,CLR,,0.00,WeatherDisplay:10.37,2013-10-29 16:19:00,
2013-10-29 12:20:00,49.4,33.4,30.45,North,350,0.0,0.0,54,0.00,CLR,,0.00,WeatherDisplay:10.37,2013-10-29 16:20:00,
2013-10-29 12:23:00,49.5,33.1,30.45,NNW,342,2.3,0.0,53,0.00,CLR,,0.00,WeatherDisplay:10.37,2013-10-29 16:23:00,
2013-10-29 12:24:00,49.6,33.6,30.45,NNW,343,0.0,0.0,54,0.00,CLR,,0.00,WeatherDisplay:10.37,2013-10-29 16:24:00,
2013-10-29 12:25:00,49.6,33.6,30.45,NW,313,3.5,3.5,54,0.00,CLR,,0.00,WeatherDisplay:10.37,2013-10-29 16:25:00,
2013-10-29 12:28:00,49.8,33.8,30.45,NW,315,1.1,0.0,54,0.00,CLR,,0.00,WeatherDisplay:10.37,2013-10-29 16:28:00,
2013-10-29 12:29:00,49.8,33.8,30.44,NW,320,2.3,2.3,54,0.00,CLR,,0.00,WeatherDisplay:10.37,2013-10-29 16:29:00,
2013-10-29 12:30:00,49.8,33.8,30.44,NW,323,2.3,2.3,54,0.00,CLR,,0.00,WeatherDisplay:10.37,2013-10-29 16:30:00,
2013-10-29 12:33:00,49.8,33.8,30.44,NNW,343,2.3,2.3,54,0.00,CLR,,0.00,WeatherDisplay:10.37,2013-10-29 16:33:00,
2013-10-29 12:34:00,49.6,33.6,30.44,North,359,2.3,2.3,54,0.00,CLR,,0.00,WeatherDisplay:10.37,2013-10-29 16:34:00,
2013-10-29 12:35:00,49.5,33.5,30.44,North,11,5.8,5.8,54,0.00,CLR,,0.00,WeatherDisplay:10.37,2013-10-29 16:35:00,
2013-10-29 12:36:00,49.4,33.9,30.44,North,0,4.6,4.6,55,0.00,CLR,,0.00,WeatherDisplay:10.37,2013-10-29 16:36:00,
2013-10-29 12:38:00,49.1,34.1,30.44,North,0,3.5,3.5,56,0.00,CLR,,0.00,WeatherDisplay:10.37,2013-10-29 16:38:00,
2013-10-29 12:39:00,48.9,34.3,30.44,North,0,3.5,3.5,57,0.00,CLR,,0.00,WeatherDisplay:10.37,2013-10-29 16:39:00,
2013-10-29 12:41:00,48.8,33.8,30.44,NW,322,5.8,5.8,56,0.00,CLR,,0.00,WeatherDisplay:10.37,2013-10-29 16:41:00,
2013-10-29 12:43:00,48.8,34.2,30.44,North,0,4.6,4.6,57,0.00,CLR,,0.00,WeatherDisplay:10.37,2013-10-29 16:43:00,
2013-10-29 12:45:00,48.8,34.2,30.44,North,0,3.5,3.5,57,0.00,CLR,,0.00,WeatherDisplay:10.37,2013-10-29 16:45:00,
2013-10-29 12:46:00,48.8,34.2,30.44,North,1,3.5,3.5,57,0.00,CLR,,0.00,WeatherDisplay:10.37,2013-10-29 16:46:00,
2013-10-29 12:48:00,48.8,34.2,30.44,North,0,5.0,5.0,57,0.00,CLR,,0.00,WeatherDisplay:10.37,2013-10-29 16:48:00,
2013-10-29 12:49:00,48.5,33.9,30.44,North,0,8.1,8.1,57,0.00,CLR,,0.00,WeatherDisplay:10.37,2013-10-29 16:49:00,
2013-10-29 12:50:00,48.3,33.8,30.44,North,0,10.4,10.4,57,0.00,CLR,,0.00,WeatherDisplay:10.37,2013-10-29 16:50:00,
2013-10-29 12:51:00,48.2,33.7,30.44,North,357,3.5,3.5,57,0.00,CLR,,0.00,WeatherDisplay:10.37,2013-10-29 16:51:00,
2013-10-29 12:53:00,48.2,33.7,30.44,North,11,3.5,3.5,57,0.00,CLR,,0.00,WeatherDisplay:10.37,2013-10-29 16:53:00,
2013-10-29 12:54:00,48.2,33.7,30.44,North,359,4.6,4.6,57,0.00,CLR,,0.00,WeatherDisplay:10.37,2013-10-29 16:54:00,
2013-10-29 12:55:00,48.2,33.7,30.44,North,359,3.5,3.5,57,0.00,CLR,,0.00,WeatherDisplay:10.37,2013-10-29 16:55:00,
2013-10-29 12:56:00,48.2,33.7,30.44,North,356,3.5,3.5,57,0.00,CLR,,0.00,WeatherDisplay:10.37,2013-10-29 16:56:00,
2013-10-29 12:57:00,48.0,33.5,30.44,North,350,4.6,4.6,57,0.00,CLR,,0.00,WeatherDisplay:10.37,2013-10-29 16:57:00,
2013-10-29 12:59:00,48.0,33.5,30.44,North,359,2.3,2.3,57,0.00,CLR,,0.00,WeatherDisplay:10.37,2013-10-29 16:59:00,
2013-10-29 13:00:00,48.0,33.5,30.44,North,359,5.0,5.0,57,0.00,CLR,,0.00,WeatherDisplay:10.37,2013-10-29 17:00:00,
2013-10-29 13:01:00,48.0,33.5,30.44,North,357,5.8,5.8,57,0.00,CLR,,0.00,WeatherDisplay:10.37,2013-10-29 17:01:00,
2013-10-29 13:02:00,48.0,33.5,30.44,North,357,0.0,0.0,57,0.00,CLR,,0.00,WeatherDisplay:10.37,2013-10-29 17:02:00,
2013-10-29 13:03:00,48.0,33.5,30.44,North,357,0.0,0.0,57,0.00,CLR,,0.00,WeatherDisplay:10.37,2013-10-29 17:03:00,
2013-10-29 13:04:00,48.0,33.5,30.44,North,359,4.6,4.6,57,0.00,CLR,,0.00,WeatherDisplay:10.37,2013-10-29 17:04:00,
2013-10-29 13:06:00,48.2,34.1,30.43,North,359,1.1,1.1,58,0.00,CLR,,0.00,WeatherDisplay:10.37,2013-10-29 17:06:00,
2013-10-29 13:07:00,48.3,33.8,30.43,North,3,1.1,0.0,57,0.00,CLR,,0.00,WeatherDisplay:10.37,2013-10-29 17:07:00,
2013-10-29 13:08:00,48.3,33.8,30.43,North,1,0.0,0.0,57,0.00,CLR,,0.00,WeatherDisplay:10.37,2013-10-29 17:08:00,
2013-10-29 13:09:00,48.3,33.8,30.43,North,359,2.3,2.3,57,0.00,CLR,,0.00,WeatherDisplay:10.37,2013-10-29 17:09:00,
2013-10-29 13:11:00,48.3,33.8,30.43,North,359,0.0,0.0,57,0.00,CLR,,0.00,WeatherDisplay:10.37,2013-10-29 17:11:00,
2013-10-29 13:12:00,48.5,33.5,30.43,North,359,0.0,0.0,56,0.00,CLR,,0.00,WeatherDisplay:10.37,2013-10-29 17:12:00,
2013-10-29 13:13:00,48.5,33.5,30.43,North,359,0.0,0.0,56,0.00,CLR,,0.00,WeatherDisplay:10.37,2013-10-29 17:13:00,
2013-10-29 13:14:00,48.5,33.9,30.43,North,359,0.0,0.0,57,0.00,CLR,,0.00,WeatherDisplay:10.37,2013-10-29 17:14:00,
2013-10-29 13:18:00,48.5,33.5,30.43,North,0,0.0,0.0,56,0.00,CLR,,0.00,WeatherDisplay:10.37,2013-10-29 17:18:00,
2013-10-29 13:19:00,48.5,33.9,30.43,North,0,0.0,0.0,57,0.00,CLR,,0.00,WeatherDisplay:10.37,2013-10-29 17:19:00,
2013-10-29 13:20:00,48.6,34.0,30.43,North,0,0.0,0.0,57,0.00,CLR,,0.00,WeatherDisplay:10.37,2013-10-29 17:20:00,
2013-10-29 13:23:00,48.8,33.8,30.43,North,0,1.1,1.1,56,0.00,CLR,,0.00,WeatherDisplay:10.37,2013-10-29 17:23:00,
2013-10-29 13:24:00,48.9,34.3,30.43,North,0,0.0,0.0,57,0.00,CLR,,0.00,WeatherDisplay:10.37,2013-10-29 17:24:00,
2013-10-29 13:25:00,48.9,34.3,30.43,North,0,0.0,0.0,57,0.00,CLR,,0.00,WeatherDisplay:10.37,2013-10-29 17:25:00,
2013-10-29 13:28:00,49.1,33.6,30.42,NE,44,0.0,0.0,55,0.00,CLR,,0.00,WeatherDisplay:10.37,2013-10-29 17:28:00,
2013-10-29 13:29:00,49.2,34.2,30.42,NE,44,0.0,0.0,56,0.00,CLR,,0.00,WeatherDisplay:10.37,2013-10-29 17:29:00,
2013-10-29 13:30:00,49.2,33.7,30.42,NNE,18,4.6,4.6,55,0.00,CLR,,0.00,WeatherDisplay:10.37,2013-10-29 17:30:00,
2013-10-29 13:33:00,49.5,34.0,30.42,NNE,18,3.5,0.0,55,0.00,CLR,,0.00,WeatherDisplay:10.37,2013-10-29 17:33:00,
2013-10-29 13:35:00,49.5,33.5,30.42,NNE,14,3.5,3.5,54,0.00,CLR,,0.00,WeatherDisplay:10.37,2013-10-29 17:35:00,
2013-10-29 13:36:00,49.5,33.5,30.42,NNE,14,0.0,0.0,54,0.00,CLR,,0.00,WeatherDisplay:10.37,2013-10-29 17:36:00,
2013-10-29 13:37:00,49.6,33.6,30.42,NNE,14,0.0,0.0,54,0.00,CLR,,0.00,WeatherDisplay:10.37,2013-10-29 17:37:00,
2013-10-29 13:38:00,49.8,33.8,30.42,NNE,16,0.0,0.2,54,0.00,CLR,,0.00,WeatherDisplay:10.37,2013-10-29 17:38:00,
2013-10-29 13:40:00,50.1,34.1,30.42,NNE,16,0.0,0.0,54,0.00,CLR,,0.00,WeatherDisplay:10.37,2013-10-29 17:40:00,
2013-10-29 13:41:00,50.1,34.1,30.42,NNE,16,0.0,0.0,54,0.00,CLR,,0.00,WeatherDisplay:10.37,2013-10-29 17:41:00,
2013-10-29 13:42:00,50.4,33.9,30.42,NNE,16,0.0,0.0,53,0.00,CLR,,0.00,WeatherDisplay:10.37,2013-10-29 17:42:00,
2013-10-29 13:43:00,50.4,33.9,30.42,NNE,16,1.0,1.0,53,0.00,CLR,,0.00,WeatherDisplay:10.37,2013-10-29 17:43:00,
2013-10-29 13:46:00,50.5,33.0,30.42,NNE,13,0.0,0.0,51,0.00,CLR,,0.00,WeatherDisplay:10.37,2013-10-29 17:46:00,
2013-10-29 13:47:00,50.7,33.2,30.41,NNE,13,0.0,0.0,51,0.00,CLR,,0.00,WeatherDisplay:10.37,2013-10-29 17:47:00,
2013-10-29 13:48:00,50.8,33.3,30.41,NNE,13,0.0,0.0,51,0.00,CLR,,0.00,WeatherDisplay:10.37,2013-10-29 17:48:00,
2013-10-29 13:51:00,51.3,33.3,30.41,NNE,13,0.0,0.0,50,0.00,CLR,,0.00,WeatherDisplay:10.37,2013-10-29 17:51:00,
2013-10-29 13:52:00,51.3,33.3,30.41,NNE,14,0.0,0.0,50,0.00,CLR,,0.00,WeatherDisplay:10.37,2013-10-29 17:52:00,
2013-10-29 13:53:00,51.3,32.3,30.41,NNE,14,0.0,0.0,48,0.00,CLR,,0.00,WeatherDisplay:10.37,2013-10-29 17:53:00,
2013-10-29 13:54:00,51.3,32.3,30.41,NE,49,3.5,3.5,48,0.00,CLR,,0.00,WeatherDisplay:10.37,2013-10-29 17:54:00,
2013-10-29 13:57:00,51.1,31.6,30.41,NE,49,0.0,0.0,47,0.00,CLR,,0.00,WeatherDisplay:10.37,2013-10-29 17:57:00,
2013-10-29 13:58:00,51.3,32.3,30.41,NE,51,0.0,0.0,48,0.00,CLR,,0.00,WeatherDisplay:10.37,2013-10-29 17:58:00,
2013-10-29 13:59:00,51.3,32.8,30.40,NE,54,2.3,2.3,49,0.00,CLR,,0.00,WeatherDisplay:10.37,2013-10-29 17:59:00,
2013-10-29 14:00:00,51.3,32.3,30.40,NE,54,2.3,0.0,48,0.00,CLR,,0.00,WeatherDisplay:10.37,2013-10-29 18:00:00,
2013-10-29 14:02:00,51.3,32.3,30.40,NE,54,0.0,0.0,48,0.00,CLR,,0.00,WeatherDisplay:10.37,2013-10-29 18:02:00,
2013-10-29 14:03:00,51.4,32.9,30.40,NE,54,0.0,0.0,49,0.00,CLR,,0.00,WeatherDisplay:10.37,2013-10-29 18:03:00,
2013-10-29 14:04:00,51.4,32.3,30.40,NE,54,0.0,0.0,48,0.00,CLR,,0.00,WeatherDisplay:10.37,2013-10-29 18:04:00,
2013-10-29 14:05:00,51.6,32.5,30.40,NE,54,0.0,0.0,48,0.00,CLR,,0.00,WeatherDisplay:10.37,2013-10-29 18:05:00,
2013-10-29 14:06:00,51.6,32.0,30.40,NE,54,0.0,0.0,47,0.00,CLR,,0.00,WeatherDisplay:10.37,2013-10-29 18:06:00,
2013-10-29 14:07:00,51.6,32.0,30.40,NE,54,0.0,0.0,47,0.00,CLR,,0.00,WeatherDisplay:10.37,2013-10-29 18:07:00,
2013-10-29 14:09:00,51.6,32.0,30.40,NE,54,0.0,0.0,47,0.00,CLR,,0.00,WeatherDisplay:10.37,2013-10-29 18:09:00,
2013-10-29 14:10:00,51.6,32.0,30.40,NE,54,0.0,0.0,47,0.00,CLR,,0.00,WeatherDisplay:10.37,2013-10-29 18:10:00,
2013-10-29 14:11:00,51.7,32.1,30.40,West,274,4.0,4.0,47,0.00,CLR,,0.00,WeatherDisplay:10.37,2013-10-29 18:11:00,
2013-10-29 14:13:00,51.6,31.5,30.40,WSW,251,3.5,3.5,46,0.00,CLR,,0.00,WeatherDisplay:10.37,2013-10-29 18:13:00,
2013-10-29 14:14:00,51.6,30.9,30.40,WSW,251,0.0,0.0,45,0.00,CLR,,0.00,WeatherDisplay:10.37,2013-10-29 18:14:00,
2013-10-29 14:15:00,51.6,30.9,30.40,WSW,251,0.0,0.0,45,0.00,CLR,,0.00,WeatherDisplay:10.37,2013-10-29 18:15:00,
2013-10-29 14:16:00,51.6,31.5,30.39,WSW,251,0.0,0.0,46,0.00,CLR,,0.00,WeatherDisplay:10.37,2013-10-29 18:16:00,
2013-10-29 14:18:00,51.7,32.1,30.39,West,261,0.0,0.0,47,0.00,CLR,,0.00,WeatherDisplay:10.37,2013-10-29 18:18:00,
2013-10-29 14:20:00,51.9,31.2,30.39,West,261,2.3,2.3,45,0.00,CLR,,0.00,WeatherDisplay:10.37,2013-10-29 18:20:00,
2013-10-29 14:21:00,51.9,31.7,30.39,North,0,3.5,3.5,46,0.00,CLR,,0.00,WeatherDisplay:10.37,2013-10-29 18:21:00,
2013-10-29 14:23:00,52.0,33.4,30.39,North,1,1.1,1.1,49,0.00,CLR,,0.00,WeatherDisplay:10.37,2013-10-29 18:23:00,
2013-10-29 14:25:00,51.7,33.6,30.39,North,354,6.0,6.0,50,0.00,CLR,,0.00,WeatherDisplay:10.37,2013-10-29 18:25:00,
2013-10-29 14:26:00,51.4,32.9,30.39,North,359,8.1,8.1,49,0.00,CLR,,0.00,WeatherDisplay:10.37,2013-10-29 18:26:00,
2013-10-29 14:27:00,51.0,33.0,30.39,North,0,9.2,9.2,50,0.00,CLR,,0.00,WeatherDisplay:10.37,2013-10-29 18:27:00,
2013-10-29 14:28:00,50.7,32.7,30.39,NNE,16,6.9,6.9,50,0.00,CLR,,0.00,WeatherDisplay:10.37,2013-10-29 18:28:00,
2013-10-29 14:30:00,50.2,32.8,30.39,North,0,5.8,5.8,51,0.00,CLR,,0.00,WeatherDisplay:10.37,2013-10-29 18:30:00,
2013-10-29 14:31:00,50.2,32.8,30.39,North,0,3.5,0.0,51,0.00,CLR,,0.00,WeatherDisplay:10.37,2013-10-29 18:31:00,
2013-10-29 14:32:00,49.9,32.5,30.39,North,0,2.0,2.0,51,0.00,CLR,,0.00,WeatherDisplay:10.37,2013-10-29 18:32:00,
2013-10-29 14:34:00,49.9,32.5,30.39,North,0,2.3,2.3,51,0.00,CLR,,0.00,WeatherDisplay:10.37,2013-10-29 18:34:00,
2013-10-29 14:35:00,49.5,32.6,30.39,North,0,6.0,6.0,52,0.00,CLR,,0.00,WeatherDisplay:10.37,2013-10-29 18:35:00,
2013-10-29 14:36:00,49.5,32.6,30.39,NNW,335,6.9,6.9,52,0.00,CLR,,0.00,WeatherDisplay:10.37,2013-10-29 18:36:00,
2013-10-29 14:38:00,49.1,32.2,30.39,North,10,6.0,6.0,52,0.00,CLR,,0.00,WeatherDisplay:10.37,2013-10-29 18:38:00,
2013-10-29 14:39:00,48.9,32.0,30.39,North,11,5.8,5.8,52,0.00,CLR,,0.00,WeatherDisplay:10.37,2013-10-29 18:39:00,
2013-10-29 14:40:00,48.9,32.0,30.39,North,11,0.0,0.0,52,0.00,CLR,,0.00,WeatherDisplay:10.37,2013-10-29 18:40:00,
2013-10-29 14:41:00,48.9,32.0,30.39,North,11,0.0,0.0,52,0.00,CLR,,0.00,WeatherDisplay:10.37,2013-10-29 18:41:00,
2013-10-29 14:43:00,48.9,32.5,30.39,North,11,0.0,0.0,53,0.00,CLR,,0.00,WeatherDisplay:10.37,2013-10-29 18:43:00,
2013-10-29 14:44:00,49.1,32.2,30.39,North,11,0.0,0.0,52,0.00,CLR,,0.00,WeatherDisplay:10.37,2013-10-29 18:44:00,
2013-10-29 14:46:00,49.2,32.3,30.39,North,11,0.0,0.0,52,0.00,CLR,,0.00,WeatherDisplay:10.37,2013-10-29 18:46:00,
2013-10-29 14:47:00,49.4,32.5,30.39,NNE,25,0.0,0.0,52,0.00,CLR,,0.00,WeatherDisplay:10.37,2013-10-29 18:47:00,
2013-10-29 14:48:00,49.5,33.1,30.39,NNE,25,0.0,0.0,53,0.00,CLR,,0.00,WeatherDisplay:10.37,2013-10-29 18:48:00,
2013-10-29 14:49:00,49.6,32.7,30.39,NNE,25,0.0,0.0,52,0.00,CLR,,0.00,WeatherDisplay:10.37,2013-10-29 18:49:00,
2013-10-29 14:51:00,49.9,32.5,30.39,NNE,25,0.0,0.0,51,0.00,CLR,,0.00,WeatherDisplay:10.37,2013-10-29 18:51:00,
2013-10-29 14:53:00,50.1,32.7,30.39,NE,34,0.0,0.0,51,0.00,CLR,,0.00,WeatherDisplay:10.37,2013-10-29 18:53:00,
2013-10-29 14:54:00,50.1,32.7,30.39,NE,34,0.0,0.0,51,0.00,CLR,,0.00,WeatherDisplay:10.37,2013-10-29 18:54:00,
2013-10-29 14:55:00,50.2,32.8,30.39,NE,34,0.0,0.0,51,0.00,CLR,,0.00,WeatherDisplay:10.37,2013-10-29 18:55:00,
2013-10-29 14:56:00,50.2,32.3,30.39,NNE,25,0.0,0.0,50,0.00,CLR,,0.00,WeatherDisplay:10.37,2013-10-29 18:56:00,
2013-10-29 14:57:00,50.2,32.3,30.39,NNE,25,0.0,0.0,50,0.00,CLR,,0.00,WeatherDisplay:10.37,2013-10-29 18:57:00,
2013-10-29 14:58:00,50.2,32.8,30.39,NNE,25,0.0,0.0,51,0.00,CLR,,0.00,WeatherDisplay:10.37,2013-10-29 18:58:00,
2013-10-29 14:59:00,50.2,32.3,30.39,NNE,27,0.0,0.0,50,0.00,CLR,,0.00,WeatherDisplay:10.37,2013-10-29 18:59:00,
2013-10-29 15:00:00,50.2,32.3,30.39,NNE,27,0.0,0.0,50,0.00,CLR,,0.00,WeatherDisplay:10.37,2013-10-29 19:00:00,
2013-10-29 15:01:00,50.4,32.9,30.38,NNE,25,0.0,0.0,51,0.00,CLR,,0.00,WeatherDisplay:10.37,2013-10-29 19:01:00,
2013-10-29 15:02:00,50.4,32.4,30.38,NNE,27,0.0,0.0,50,0.00,CLR,,0.00,WeatherDisplay:10.37,2013-10-29 19:02:00,
2013-10-29 15:03:00,50.4,32.4,30.38,NNE,27,0.0,0.0,50,0.00,CLR,,0.00,WeatherDisplay:10.37,2013-10-29 19:03:00,
2013-10-29 15:05:00,50.5,32.0,30.38,NNE,25,0.0,0.0,49,0.00,CLR,,0.00,WeatherDisplay:10.37,2013-10-29 19:05:00,
2013-10-29 15:06:00,50.5,32.0,30.38,NNE,25,0.0,0.0,49,0.00,CLR,,0.00,WeatherDisplay:10.37,2013-10-29 19:06:00,
2013-10-29 15:07:00,50.5,32.5,30.38,NNE,25,0.0,0.0,50,0.00,CLR,,0.00,WeatherDisplay:10.37,2013-10-29 19:07:00,
2013-10-29 15:08:00,50.7,32.7,30.38,NNE,25,0.0,0.0,50,0.00,CLR,,0.00,WeatherDisplay:10.37,2013-10-29 19:08:00,
2013-10-29 15:09:00,50.7,32.7,30.38,NNE,25,0.0,0.0,50,0.00,CLR,,0.00,WeatherDisplay:10.37,2013-10-29 19:09:00,
2013-10-29 15:11:00,50.8,32.3,30.38,NNE,25,0.0,0.0,49,0.00,CLR,,0.00,WeatherDisplay:10.37,2013-10-29 19:11:00,
2013-10-29 15:14:00,50.8,32.3,30.39,NNE,25,4.6,0.0,49,0.00,CLR,,0.00,WeatherDisplay:10.37,2013-10-29 19:14:00,
2013-10-29 15:16:00,50.8,32.3,30.39,NNW,346,0.0,0.3,49,0.00,CLR,,0.00,WeatherDisplay:10.37,2013-10-29 19:16:00,
2013-10-29 15:17:00,50.8,32.8,30.39,North,0,3.0,3.0,50,0.00,CLR,,0.00,WeatherDisplay:10.37,2013-10-29 19:17:00,
2013-10-29 15:19:00,50.7,33.2,30.39,NNW,336,1.1,0.0,51,0.00,CLR,,0.00,WeatherDisplay:10.37,2013-10-29 19:19:00,
2013-10-29 15:20:00,50.7,33.2,30.39,North,353,3.0,3.0,51,0.00,CLR,,0.00,WeatherDisplay:10.37,2013-10-29 19:20:00,
2013-10-29 15:22:00,50.5,33.0,30.39,North,0,6.9,6.9,51,0.00,CLR,,0.00,WeatherDisplay:10.37,2013-10-29 19:22:00,
2013-10-29 15:24:00,50.4,32.9,30.39,North,8,1.1,0.0,51,0.00,CLR,,0.00,WeatherDisplay:10.37,2013-10-29 19:24:00,
2013-10-29 15:25:00,50.2,33.7,30.39,North,357,3.5,3.5,53,0.00,CLR,,0.00,WeatherDisplay:10.37,2013-10-29 19:25:00,
2013-10-29 15:27:00,50.2,33.2,30.39,NNW,342,2.3,2.3,52,0.00,CLR,,0.00,WeatherDisplay:10.37,2013-10-29 19:27:00,
2013-10-29 15:29:00,50.1,33.1,30.39,NW,326,3.5,3.5,52,0.00,CLR,,0.00,WeatherDisplay:10.37,2013-10-29 19:29:00,
2013-10-29 15:30:00,50.1,33.1,30.39,NNW,336,4.6,4.6,52,0.00,CLR,,0.00,WeatherDisplay:10.37,2013-10-29 19:30:00,
2013-10-29 15:31:00,50.1,33.1,30.39,NNW,337,4.6,4.6,52,0.00,CLR,,0.00,WeatherDisplay:10.37,2013-10-29 19:31:00,
2013-10-29 15:32:00,49.9,33.0,30.38,NW,326,0.0,1.4,52,0.00,CLR,,0.00,WeatherDisplay:10.37,2013-10-29 19:32:00,
2013-10-29 15:33:00,49.9,33.0,30.38,NNW,328,5.8,5.8,52,0.00,CLR,,0.00,WeatherDisplay:10.37,2013-10-29 19:33:00,
2013-10-29 15:35:00,49.9,33.0,30.38,NNW,343,3.5,3.5,52,0.00,CLR,,0.00,WeatherDisplay:10.37,2013-10-29 19:35:00,
2013-10-29 15:36:00,49.9,33.0,30.38,NNE,25,3.5,3.5,52,0.00,CLR,,0.00,WeatherDisplay:10.37,2013-10-29 19:36:00,
2013-10-29 15:37:00,49.8,32.4,30.38,NNE,25,2.3,0.0,51,0.00,CLR,,0.00,WeatherDisplay:10.37,2013-10-29 19:37:00,
2013-10-29 15:38:00,49.9,33.0,30.38,NNE,25,0.0,0.0,52,0.00,CLR,,0.00,WeatherDisplay:10.37,2013-10-29 19:38:00,
2013-10-29 15:40:00,49.9,33.0,30.38,NNE,21,2.3,2.3,52,0.00,CLR,,0.00,WeatherDisplay:10.37,2013-10-29 19:40:00,
2013-10-29 15:41:00,49.9,32.5,30.38,NNE,20,0.0,0.0,51,0.00,CLR,,0.00,WeatherDisplay:10.37,2013-10-29 19:41:00,
2013-10-29 15:42:00,49.8,32.9,30.38,NNE,21,0.0,0.0,52,0.00,CLR,,0.00,WeatherDisplay:10.37,2013-10-29 19:42:00,
2013-10-29 15:43:00,49.8,32.4,30.38,NNE,21,0.0,0.0,51,0.00,CLR,,0.00,WeatherDisplay:10.37,2013-10-29 19:43:00,
2013-10-29 15:45:00,49.9,33.0,30.38,NNE,20,1.1,1.1,52,0.00,CLR,,0.00,WeatherDisplay:10.37,2013-10-29 19:45:00,
2013-10-29 15:46:00,49.9,33.0,30.38,NNE,20,3.5,3.5,52,0.00,CLR,,0.00,WeatherDisplay:10.37,2013-10-29 19:46:00,
2013-10-29 15:47:00,49.9,32.5,30.38,NNE,20,2.3,0.0,51,0.00,CLR,,0.00,WeatherDisplay:10.37,2013-10-29 19:47:00,
2013-10-29 15:48:00,49.9,32.5,30.38,NNE,20,0.0,0.0,51,0.00,CLR,,0.00,WeatherDisplay:10.37,2013-10-29 19:48:00,
2013-10-29 15:51:00,50.1,32.7,30.38,NNE,18,0.0,0.0,51,0.00,CLR,,0.00,WeatherDisplay:10.37,2013-10-29 19:51:00,
2013-10-29 15:52:00,50.2,32.8,30.38,NNE,18,2.3,2.3,51,0.00,CLR,,0.00,WeatherDisplay:10.37,2013-10-29 19:52:00,
2013-10-29 15:53:00,50.2,32.8,30.38,NNE,18,2.3,2.3,51,0.00,CLR,,0.00,WeatherDisplay:10.37,2013-10-29 19:53:00,
2013-10-29 15:54:00,50.2,32.8,30.38,North,354,3.5,3.5,51,0.00,CLR,,0.00,WeatherDisplay:10.37,2013-10-29 19:54:00,
2013-10-29 15:56:00,50.2,33.2,30.38,North,0,2.0,2.0,52,0.00,CLR,,0.00,WeatherDisplay:10.37,2013-10-29 19:56:00,
2013-10-29 15:57:00,50.1,33.1,30.38,North,0,8.1,0.0,52,0.00,CLR,,0.00,WeatherDisplay:10.37,2013-10-29 19:57:00,
2013-10-29 15:58:00,50.1,33.1,30.38,North,0,0.0,0.0,52,0.00,CLR,,0.00,WeatherDisplay:10.37,2013-10-29 19:58:00,
2013-10-29 15:59:00,49.9,33.4,30.38,North,354,2.3,2.3,53,0.00,CLR,,0.00,WeatherDisplay:10.37,2013-10-29 19:59:00,
2013-10-29 16:01:00,49.8,33.3,30.38,North,0,6.9,6.9,53,0.00,CLR,,0.00,WeatherDisplay:10.37,2013-10-29 20:01:00,
2013-10-29 16:02:00,49.8,33.8,30.38,North,0,2.3,2.3,54,0.00,CLR,,0.00,WeatherDisplay:10.37,2013-10-29 20:02:00,
2013-10-29 16:03:00,49.8,33.8,30.38,North,359,1.1,1.1,54,0.00,CLR,,0.00,WeatherDisplay:10.37,2013-10-29 20:03:00,
2013-10-29 16:04:00,49.6,33.2,30.38,North,8,5.8,5.8,53,0.00,CLR,,0.00,WeatherDisplay:10.37,2013-10-29 20:04:00,
2013-10-29 16:06:00,49.5,33.5,30.38,North,10,0.0,0.0,54,0.00,CLR,,0.00,WeatherDisplay:10.37,2013-10-29 20:06:00,
2013-10-29 16:07:00,49.5,33.1,30.38,North,6,1.1,1.1,53,0.00,CLR,,0.00,WeatherDisplay:10.37,2013-10-29 20:07:00,
2013-10-29 16:08:00,49.5,33.1,30.38,North,6,3.5,3.5,53,0.00,CLR,,0.00,WeatherDisplay:10.37,2013-10-29 20:08:00,
2013-10-29 16:09:00,49.4,33.4,30.38,North,10,0.0,0.0,54,0.00,CLR,,0.00,WeatherDisplay:10.37,2013-10-29 20:09:00,
2013-10-29 16:12:00,49.4,33.4,30.38,North,8,0.0,0.0,54,0.00,CLR,,0.00,WeatherDisplay:10.37,2013-10-29 20:12:00,
2013-10-29 16:13:00,49.4,33.4,30.38,North,0,0.0,0.0,54,0.00,CLR,,0.00,WeatherDisplay:10.37,2013-10-29 20:13:00,
2013-10-29 16:14:00,49.4,33.4,30.38,North,0,1.1,1.1,54,0.00,CLR,,0.00,WeatherDisplay:10.37,2013-10-29 20:14:00,
2013-10-29 16:16:00,49.2,33.3,30.38,North,357,2.3,2.3,54,0.00,CLR,,0.00,WeatherDisplay:10.37,2013-10-29 20:16:00,
2013-10-29 16:17:00,49.2,33.3,30.38,North,359,0.0,0.0,54,0.00,CLR,,0.00,WeatherDisplay:10.37,2013-10-29 20:17:00,
2013-10-29 16:18:00,49.2,33.7,30.38,North,359,0.0,0.0,55,0.00,CLR,,0.00,WeatherDisplay:10.37,2013-10-29 20:18:00,
2013-10-29 16:19:00,49.2,33.7,30.38,North,359,0.0,0.0,55,0.00,CLR,,0.00,WeatherDisplay:10.37,2013-10-29 20:19:00,
2013-10-29 16:20:00,49.2,33.7,30.38,North,359,0.0,0.0,55,0.00,CLR,,0.00,WeatherDisplay:10.37,2013-10-29 20:20:00,
2013-10-29 16:21:00,49.2,33.7,30.38,North,359,0.0,0.0,55,0.00,CLR,,0.00,WeatherDisplay:10.37,2013-10-29 20:21:00,
2013-10-29 16:22:00,49.1,33.2,30.38,North,359,0.0,0.0,54,0.00,CLR,,0.00,WeatherDisplay:10.37,2013-10-29 20:22:00,
2013-10-29 16:23:00,49.1,33.6,30.39,NE,47,3.0,0.0,55,0.00,CLR,,0.00,WeatherDisplay:10.37,2013-10-29 20:23:00,
2013-10-29 16:24:00,49.1,33.6,30.38,NE,47,3.5,3.5,55,0.00,CLR,,0.00,WeatherDisplay:10.37,2013-10-29 20:24:00,
2013-10-29 16:25:00,48.9,33.4,30.39,NNE,18,2.3,2.3,55,0.00,CLR,,0.00,WeatherDisplay:10.37,2013-10-29 20:25:00,
2013-10-29 16:26:00,48.6,32.7,30.39,NNE,28,4.6,4.6,54,0.00,CLR,,0.00,WeatherDisplay:10.37,2013-10-29 20:26:00,
2013-10-29 16:27:00,48.6,33.1,30.39,NNE,27,4.6,4.6,55,0.00,CLR,,0.00,WeatherDisplay:10.37,2013-10-29 20:27:00,
2013-10-29 16:29:00,48.5,33.5,30.38,NNE,18,0.0,0.0,56,0.00,CLR,,0.00,WeatherDisplay:10.37,2013-10-29 20:29:00,
2013-10-29 16:30:00,48.3,33.3,30.38,NNE,18,0.0,0.0,56,0.00,CLR,,0.00,WeatherDisplay:10.37,2013-10-29 20:30:00,
2013-10-29 16:32:00,48.2,33.7,30.38,NNE,18,0.0,0.0,57,0.00,CLR,,0.00,WeatherDisplay:10.37,2013-10-29 20:32:00,
2013-10-29 16:34:00,48.0,33.5,30.38,NNE,18,0.0,0.0,57,0.00,CLR,,0.00,WeatherDisplay:10.37,2013-10-29 20:34:00,
2013-10-29 16:35:00,48.0,33.5,30.38,NNE,18,0.0,0.0,57,0.00,CLR,,0.00,WeatherDisplay:10.37,2013-10-29 20:35:00,
2013-10-29 16:37:00,47.9,33.4,30.38,NNE,17,0.0,0.0,57,0.00,CLR,,0.00,WeatherDisplay:10.37,2013-10-29 20:37:00,
2013-10-29 16:39:00,47.6,32.7,30.38,NNE,16,3.5,3.5,56,0.00,CLR,,0.00,WeatherDisplay:10.37,2013-10-29 20:39:00,
2013-10-29 16:40:00,47.6,32.7,30.38,NNE,24,5.8,5.8,56,0.00,CLR,,0.00,WeatherDisplay:10.37,2013-10-29 20:40:00,
2013-10-29 16:43:00,47.3,32.8,30.38,North,10,0.0,0.0,57,0.00,CLR,,0.00,WeatherDisplay:10.37,2013-10-29 20:43:00,
2013-10-29 16:44:00,47.3,32.8,30.38,North,10,0.0,0.0,57,0.00,CLR,,0.00,WeatherDisplay:10.37,2013-10-29 20:44:00,
2013-10-29 16:45:00,47.3,32.8,30.38,North,10,0.0,0.0,57,0.00,CLR,,0.00,WeatherDisplay:10.37,2013-10-29 20:45:00,
2013-10-29 16:48:00,47.1,32.6,30.39,NNE,18,0.0,0.0,57,0.00,CLR,,0.00,WeatherDisplay:10.37,2013-10-29 20:48:00,
2013-10-29 16:49:00,47.1,33.1,30.39,NNE,18,0.0,0.0,58,0.00,CLR,,0.00,WeatherDisplay:10.37,2013-10-29 20:49:00,
2013-10-29 16:50:00,47.1,33.1,30.39,NNE,18,0.0,0.0,58,0.00,CLR,,0.00,WeatherDisplay:10.37,2013-10-29 20:50:00,
2013-10-29 16:51:00,47.1,33.1,30.39,NNE,20,0.0,0.0,58,0.00,CLR,,0.00,WeatherDisplay:10.37,2013-10-29 20:51:00,
2013-10-29 16:53:00,47.0,33.0,30.39,ENE,69,2.3,2.3,58,0.00,CLR,,0.00,WeatherDisplay:10.37,2013-10-29 20:53:00,
2013-10-29 16:55:00,46.8,32.4,30.39,ENE,62,0.0,0.0,57,0.00,CLR,,0.00,WeatherDisplay:10.37,2013-10-29 20:55:00,
2013-10-29 16:56:00,46.8,32.8,30.39,ENE,62,0.0,0.0,58,0.00,CLR,,0.00,WeatherDisplay:10.37,2013-10-29 20:56:00,
2013-10-29 16:58:00,46.8,32.8,30.39,ENE,62,0.0,0.0,58,0.00,CLR,,0.00,WeatherDisplay:10.37,2013-10-29 20:58:00,
2013-10-29 17:00:00,46.8,32.8,30.39,ENE,64,0.0,0.0,58,0.00,CLR,,0.00,WeatherDisplay:10.37,2013-10-29 21:00:00,
2013-10-29 17:01:00,46.8,32.8,30.39,ENE,64,0.0,0.0,58,0.00,CLR,,0.00,WeatherDisplay:10.37,2013-10-29 21:01:00,
2013-10-29 17:03:00,46.7,33.1,30.39,ENE,62,0.0,0.0,59,0.00,CLR,,0.00,WeatherDisplay:10.37,2013-10-29 21:03:00,
2013-10-29 17:05:00,46.7,32.7,30.39,ENE,62,0.0,0.0,58,0.00,CLR,,0.00,WeatherDisplay:10.37,2013-10-29 21:05:00,
2013-10-29 17:06:00,46.7,33.1,30.39,ENE,62,0.0,0.0,59,0.00,CLR,,0.00,WeatherDisplay:10.37,2013-10-29 21:06:00,
2013-10-29 17:07:00,46.7,33.1,30.39,North,1,1.0,0.0,59,0.00,CLR,,0.00,WeatherDisplay:10.37,2013-10-29 21:07:00,
2013-10-29 17:08:00,46.5,32.9,30.39,North,0,1.1,0.0,59,0.00,CLR,,0.00,WeatherDisplay:10.37,2013-10-29 21:08:00,
2013-10-29 17:11:00,46.5,32.9,30.39,North,0,2.3,2.3,59,0.00,CLR,,0.00,WeatherDisplay:10.37,2013-10-29 21:11:00,
2013-10-29 17:12:00,46.5,32.9,30.39,North,1,0.0,0.0,59,0.00,CLR,,0.00,WeatherDisplay:10.37,2013-10-29 21:12:00,
2013-10-29 17:13:00,46.5,32.9,30.39,North,0,0.0,0.0,59,0.00,CLR,,0.00,WeatherDisplay:10.37,2013-10-29 21:13:00,
2013-10-29 17:16:00,46.5,33.4,30.39,North,7,0.0,0.0,60,0.00,CLR,,0.00,WeatherDisplay:10.37,2013-10-29 21:16:00,
2013-10-29 17:17:00,46.5,33.4,30.39,North,7,0.0,0.0,60,0.00,CLR,,0.00,WeatherDisplay:10.37,2013-10-29 21:17:00,
2013-10-29 17:18:00,46.5,33.4,30.39,North,7,0.0,0.0,60,0.00,CLR,,0.00,WeatherDisplay:10.37,2013-10-29 21:18:00,
2013-10-29 17:21:00,46.4,33.3,30.39,ENE,61,1.1,1.1,60,0.00,CLR,,0.00,WeatherDisplay:10.37,2013-10-29 21:21:00,
2013-10-29 17:22:00,46.4,33.3,30.39,ENE,61,2.3,0.0,60,0.00,CLR,,0.00,WeatherDisplay:10.37,2013-10-29 21:22:00,
2013-10-29 17:23:00,46.2,33.1,30.39,ENE,61,0.0,0.0,60,0.00,CLR,,0.00,WeatherDisplay:10.37,2013-10-29 21:23:00,
2013-10-29 17:24:00,46.2,33.1,30.39,ENE,61,2.3,2.3,60,0.00,CLR,,0.00,WeatherDisplay:10.37,2013-10-29 21:24:00,
2013-10-29 17:27:00,46.2,33.1,30.39,ENE,61,0.0,0.0,60,0.00,CLR,,0.00,WeatherDisplay:10.37,2013-10-29 21:27:00,
2013-10-29 17:28:00,46.1,33.0,30.39,ENE,61,0.0,0.0,60,0.00,CLR,,0.00,WeatherDisplay:10.37,2013-10-29 21:28:00,
2013-10-29 17:29:00,46.1,33.0,30.39,ENE,61,0.0,0.0,60,0.00,CLR,,0.00,WeatherDisplay:10.37,2013-10-29 21:29:00,
2013-10-29 17:32:00,46.1,33.4,30.39,ENE,61,0.0,0.0,61,0.00,CLR,,0.00,WeatherDisplay:10.37,2013-10-29 21:32:00,
2013-10-29 17:33:00,46.1,33.4,30.39,ENE,61,0.0,0.0,61,0.00,CLR,,0.00,WeatherDisplay:10.37,2013-10-29 21:33:00,
2013-10-29 17:34:00,46.1,33.4,30.39,ENE,61,0.0,0.0,61,0.00,CLR,,0.00,WeatherDisplay:10.37,2013-10-29 21:34:00,
2013-10-29 17:37:00,46.1,33.0,30.38,ENE,61,0.0,0.0,60,0.00,CLR,,0.00,WeatherDisplay:10.37,2013-10-29 21:37:00,
2013-10-29 17:38:00,46.0,33.3,30.38,ENE,61,0.0,0.0,61,0.00,CLR,,0.00,WeatherDisplay:10.37,2013-10-29 21:38:00,
2013-10-29 17:39:00,46.0,33.3,30.38,ENE,61,0.0,0.0,61,0.00,CLR,,0.00,WeatherDisplay:10.37,2013-10-29 21:39:00,
2013-10-29 17:42:00,45.8,33.1,30.38,ENE,61,0.0,0.0,61,0.00,CLR,,0.00,WeatherDisplay:10.37,2013-10-29 21:42:00,
2013-10-29 17:43:00,45.8,33.1,30.38,ENE,61,0.0,0.0,61,0.00,CLR,,0.00,WeatherDisplay:10.37,2013-10-29 21:43:00,
2013-10-29 17:44:00,45.8,33.1,30.38,ENE,61,0.0,0.0,61,0.00,CLR,,0.00,WeatherDisplay:10.37,2013-10-29 21:44:00,
2013-10-29 17:45:00,45.8,33.1,30.38,ENE,61,0.0,0.0,61,0.00,CLR,,0.00,WeatherDisplay:10.37,2013-10-29 21:45:00,
2013-10-29 17:47:00,45.7,33.4,30.38,ENE,61,0.0,0.0,62,0.00,CLR,,0.00,WeatherDisplay:10.37,2013-10-29 21:47:00,
2013-10-29 17:48:00,45.7,33.4,30.38,ENE,61,0.0,0.0,62,0.00,CLR,,0.00,WeatherDisplay:10.37,2013-10-29 21:48:00,
2013-10-29 17:50:00,45.7,33.4,30.38,ENE,61,0.0,0.0,62,0.00,CLR,,0.00,WeatherDisplay:10.37,2013-10-29 21:50:00,
2013-10-29 17:51:00,45.7,33.4,30.38,ENE,61,0.0,0.0,62,0.00,CLR,,0.00,WeatherDisplay:10.37,2013-10-29 21:51:00,
2013-10-29 17:52:00,45.5,33.2,30.38,ENE,61,0.0,0.0,62,0.00,CLR,,0.00,WeatherDisplay:10.37,2013-10-29 21:52:00,
2013-10-29 17:53:00,45.5,33.2,30.38,ENE,61,0.0,0.0,62,0.00,CLR,,0.00,WeatherDisplay:10.37,2013-10-29 21:53:00,
2013-10-29 17:55:00,45.4,33.1,30.38,ENE,61,0.0,0.0,62,0.00,CLR,,0.00,WeatherDisplay:10.37,2013-10-29 21:55:00,
2013-10-29 17:56:00,45.4,33.1,30.39,ENE,61,0.0,0.0,62,0.00,CLR,,0.00,WeatherDisplay:10.37,2013-10-29 21:56:00,
2013-10-29 17:57:00,45.4,33.1,30.39,ENE,61,0.0,0.0,62,0.00,CLR,,0.00,WeatherDisplay:10.37,2013-10-29 21:57:00,
2013-10-29 17:58:00,45.4,33.5,30.39,ENE,61,0.0,0.0,63,0.00,CLR,,0.00,WeatherDisplay:10.37,2013-10-29 21:58:00,
2013-10-29 17:59:00,45.2,33.3,30.39,ENE,61,0.0,0.0,63,0.00,CLR,,0.00,WeatherDisplay:10.37,2013-10-29 21:59:00,
2013-10-29 18:00:00,45.2,33.3,30.39,ENE,61,0.0,0.0,63,0.00,CLR,,0.00,WeatherDisplay:10.37,2013-10-29 22:00:00,
2013-10-29 18:01:00,45.2,33.3,30.39,ENE,61,0.0,0.0,63,0.00,CLR,,0.00,WeatherDisplay:10.37,2013-10-29 22:01:00,
2013-10-29 18:02:00,45.2,33.3,30.39,ENE,61,0.0,0.0,63,0.00,CLR,,0.00,WeatherDisplay:10.37,2013-10-29 22:02:00,
2013-10-29 18:03:00,45.1,33.2,30.39,ENE,61,0.0,0.0,63,0.00,CLR,,0.00,WeatherDisplay:10.37,2013-10-29 22:03:00,
2013-10-29 18:04:00,45.1,33.6,30.39,ENE,61,0.0,0.0,64,0.00,CLR,,0.00,WeatherDisplay:10.37,2013-10-29 22:04:00,
2013-10-29 18:06:00,45.1,33.6,30.39,ENE,61,0.0,0.0,64,0.00,CLR,,0.00,WeatherDisplay:10.37,2013-10-29 22:06:00,
2013-10-29 18:07:00,44.9,33.5,30.39,ENE,61,0.0,0.0,64,0.00,CLR,,0.00,WeatherDisplay:10.37,2013-10-29 22:07:00,
2013-10-29 18:08:00,44.9,33.5,30.39,ENE,61,0.0,0.0,64,0.00,CLR,,0.00,WeatherDisplay:10.37,2013-10-29 22:08:00,
2013-10-29 18:09:00,44.9,33.5,30.39,ENE,61,0.0,0.0,64,0.00,CLR,,0.00,WeatherDisplay:10.37,2013-10-29 22:09:00,
2013-10-29 18:11:00,44.8,33.4,30.39,ENE,61,0.0,0.0,64,0.00,CLR,,0.00,WeatherDisplay:10.37,2013-10-29 22:11:00,
2013-10-29 18:13:00,44.8,33.4,30.39,ENE,61,0.0,0.0,64,0.00,CLR,,0.00,WeatherDisplay:10.37,2013-10-29 22:13:00,
2013-10-29 18:14:00,44.6,33.2,30.39,ENE,61,0.0,0.0,64,0.00,CLR,,0.00,WeatherDisplay:10.37,2013-10-29 22:14:00,
2013-10-29 18:16:00,44.6,33.6,30.39,ENE,61,0.0,0.0,65,0.00,CLR,,0.00,WeatherDisplay:10.37,2013-10-29 22:16:00,
2013-10-29 18:18:00,44.5,33.5,30.39,ENE,61,0.0,0.0,65,0.00,CLR,,0.00,WeatherDisplay:10.37,2013-10-29 22:18:00,
2013-10-29 18:19:00,44.5,33.5,30.39,ENE,61,0.0,0.0,65,0.00,CLR,,0.00,WeatherDisplay:10.37,2013-10-29 22:19:00,
2013-10-29 18:21:00,44.3,33.7,30.39,ENE,61,0.0,0.0,66,0.00,CLR,,0.00,WeatherDisplay:10.37,2013-10-29 22:21:00,
2013-10-29 18:22:00,44.3,33.7,30.39,ENE,61,0.0,0.0,66,0.00,CLR,,0.00,WeatherDisplay:10.37,2013-10-29 22:22:00,
2013-10-29 18:23:00,44.3,33.7,30.39,ENE,61,0.0,0.0,66,0.00,CLR,,0.00,WeatherDisplay:10.37,2013-10-29 22:23:00,
2013-10-29 18:24:00,44.2,33.9,30.39,ENE,61,0.0,0.0,67,0.00,CLR,,0.00,WeatherDisplay:10.37,2013-10-29 22:24:00,
2013-10-29 18:25:00,44.2,33.9,30.39,ENE,61,0.0,0.0,67,0.00,CLR,,0.00,WeatherDisplay:10.37,2013-10-29 22:25:00,
2013-10-29 18:27:00,44.2,33.6,30.38,ENE,61,0.0,0.0,66,0.00,CLR,,0.00,WeatherDisplay:10.37,2013-10-29 22:27:00,
2013-10-29 18:28:00,44.1,33.8,30.38,ENE,61,0.0,0.0,67,0.00,CLR,,0.00,WeatherDisplay:10.37,2013-10-29 22:28:00,
2013-10-29 18:29:00,44.1,33.8,30.38,ENE,61,0.0,0.0,67,0.00,CLR,,0.00,WeatherDisplay:10.37,2013-10-29 22:29:00,
2013-10-29 18:31:00,43.9,33.6,30.38,ENE,61,0.0,0.0,67,0.00,CLR,,0.00,WeatherDisplay:10.37,2013-10-29 22:31:00,
2013-10-29 18:32:00,43.9,33.6,30.38,ENE,61,0.0,0.0,67,0.00,CLR,,0.00,WeatherDisplay:10.37,2013-10-29 22:32:00,
2013-10-29 18:33:00,43.8,33.9,30.38,ENE,61,0.0,0.0,68,0.00,CLR,,0.00,WeatherDisplay:10.37,2013-10-29 22:33:00,
2013-10-29 18:34:00,43.8,33.9,30.38,ENE,61,0.0,0.0,68,0.00,CLR,,0.00,WeatherDisplay:10.37,2013-10-29 22:34:00,
2013-10-29 18:36:00,43.6,33.7,30.38,ENE,61,0.0,0.0,68,0.00,CLR,,0.00,WeatherDisplay:10.37,2013-10-29 22:36:00,
2013-10-29 18:37:00,43.5,34.0,30.38,ENE,61,0.0,0.0,69,0.00,CLR,,0.00,WeatherDisplay:10.37,2013-10-29 22:37:00,
2013-10-29 18:38:00,43.5,34.0,30.38,ENE,61,0.0,0.0,69,0.00,CLR,,0.00,WeatherDisplay:10.37,2013-10-29 22:38:00,
2013-10-29 18:39:00,43.5,34.0,30.38,ENE,61,0.0,0.0,69,0.00,CLR,,0.00,WeatherDisplay:10.37,2013-10-29 22:39:00,
2013-10-29 18:40:00,43.3,33.8,30.38,ENE,61,0.0,0.0,69,0.00,CLR,,0.00,WeatherDisplay:10.37,2013-10-29 22:40:00,
2013-10-29 18:42:00,43.2,34.1,30.39,ENE,61,0.0,0.0,70,0.00,CLR,,0.00,WeatherDisplay:10.37,2013-10-29 22:42:00,
2013-10-29 18:44:00,43.1,34.0,30.39,ENE,61,0.0,0.0,70,0.00,CLR,,0.00,WeatherDisplay:10.37,2013-10-29 22:44:00,
2013-10-29 18:45:00,42.9,33.8,30.39,ENE,61,0.0,0.0,70,0.00,CLR,,0.00,WeatherDisplay:10.37,2013-10-29 22:45:00,
2013-10-29 18:47:00,42.9,33.8,30.39,ENE,61,0.0,0.0,70,0.00,CLR,,0.00,WeatherDisplay:10.37,2013-10-29 22:47:00,
2013-10-29 18:49:00,42.9,33.8,30.39,ENE,61,0.0,0.0,70,0.00,CLR,,0.00,WeatherDisplay:10.37,2013-10-29 22:49:00,
2013-10-29 18:50:00,42.8,34.0,30.39,ENE,61,0.0,0.0,71,0.00,CLR,,0.00,WeatherDisplay:10.37,2013-10-29 22:50:00,
2013-10-29 18:51:00,42.8,34.0,30.39,ENE,61,0.0,0.0,71,0.00,CLR,,0.00,WeatherDisplay:10.37,2013-10-29 22:51:00,
2013-10-29 18:52:00,42.8,34.0,30.39,ENE,61,0.0,0.0,71,0.00,CLR,,0.00,WeatherDisplay:10.37,2013-10-29 22:52:00,
2013-10-29 18:53:00,42.6,34.2,30.39,ENE,61,0.0,0.0,72,0.00,CLR,,0.00,WeatherDisplay:10.37,2013-10-29 22:53:00,
2013-10-29 18:54:00,42.6,34.2,30.39,ENE,61,0.0,0.0,72,0.00,CLR,,0.00,WeatherDisplay:10.37,2013-10-29 22:54:00,
2013-10-29 18:55:00,42.5,34.5,30.39,ENE,61,0.0,0.0,73,0.00,CLR,,0.00,WeatherDisplay:10.37,2013-10-29 22:55:00,
2013-10-29 18:56:00,42.5,34.5,30.39,ENE,61,0.0,0.0,73,0.00,CLR,,0.00,WeatherDisplay:10.37,2013-10-29 22:56:00,
2013-10-29 18:57:00,42.3,34.6,30.39,ENE,61,0.0,0.0,74,0.00,CLR,,0.00,WeatherDisplay:10.37,2013-10-29 22:57:00,
2013-10-29 18:58:00,42.2,34.5,30.39,ENE,61,0.0,0.0,74,0.00,CLR,,0.00,WeatherDisplay:10.37,2013-10-29 22:58:00,
2013-10-29 18:59:00,42.2,34.5,30.39,ENE,61,0.0,0.0,74,0.00,CLR,,0.00,WeatherDisplay:10.37,2013-10-29 22:59:00,
2013-10-29 19:01:00,42.1,34.7,30.39,ENE,61,0.0,0.0,75,0.00,CLR,,0.00,WeatherDisplay:10.37,2013-10-29 23:01:00,
2013-10-29 19:02:00,41.9,34.6,30.39,ENE,61,0.0,0.0,75,0.00,CLR,,0.00,WeatherDisplay:10.37,2013-10-29 23:02:00,
2013-10-29 19:03:00,41.9,34.6,30.39,ENE,61,0.0,0.0,75,0.00,CLR,,0.00,WeatherDisplay:10.37,2013-10-29 23:03:00,
2013-10-29 19:04:00,41.8,34.8,30.39,ENE,61,0.0,0.0,76,0.00,CLR,,0.00,WeatherDisplay:10.37,2013-10-29 23:04:00,
2013-10-29 19:07:00,41.8,34.8,30.39,ENE,61,0.0,0.0,76,0.00,CLR,,0.00,WeatherDisplay:10.37,2013-10-29 23:07:00,
2013-10-29 19:08:00,41.6,34.6,30.39,ENE,61,0.0,0.0,76,0.00,CLR,,0.00,WeatherDisplay:10.37,2013-10-29 23:08:00,
2013-10-29 19:10:00,41.6,34.6,30.39,ENE,61,0.0,0.0,76,0.00,CLR,,0.00,WeatherDisplay:10.37,2013-10-29 23:10:00,
2013-10-29 19:12:00,41.6,34.6,30.39,ENE,61,0.0,0.0,76,0.00,CLR,,0.00,WeatherDisplay:10.37,2013-10-29 23:12:00,
2013-10-29 19:13:00,41.6,34.6,30.39,ENE,61,0.0,0.0,76,0.00,CLR,,0.00,WeatherDisplay:10.37,2013-10-29 23:13:00,
2013-10-29 19:14:00,41.6,34.6,30.39,ENE,61,0.0,0.0,76,0.00,CLR,,0.00,WeatherDisplay:10.37,2013-10-29 23:14:00,
2013-10-29 19:15:00,41.6,34.6,30.39,ENE,61,0.0,0.0,76,0.00,CLR,,0.00,WeatherDisplay:10.37,2013-10-29 23:15:00,
2013-10-29 19:17:00,41.5,34.8,30.39,ENE,61,0.0,0.0,77,0.00,CLR,,0.00,WeatherDisplay:10.37,2013-10-29 23:17:00,
2013-10-29 19:19:00,41.5,34.8,30.39,ENE,61,0.0,0.0,77,0.00,CLR,,0.00,WeatherDisplay:10.37,2013-10-29 23:19:00,
2013-10-29 19:20:00,41.3,34.6,30.38,ENE,62,0.0,0.4,77,0.00,CLR,,0.00,WeatherDisplay:10.37,2013-10-29 23:20:00,
2013-10-29 19:22:00,41.2,34.5,30.38,ENE,61,0.0,0.0,77,0.00,CLR,,0.00,WeatherDisplay:10.37,2013-10-29 23:22:00,
2013-10-29 19:24:00,41.1,34.8,30.38,ENE,62,0.0,0.0,78,0.00,CLR,,0.00,WeatherDisplay:10.37,2013-10-29 23:24:00,
2013-10-29 19:25:00,40.9,34.6,30.38,ENE,62,0.0,0.0,78,0.00,CLR,,0.00,WeatherDisplay:10.37,2013-10-29 23:25:00,
2013-10-29 19:27:00,40.8,34.5,30.38,ENE,62,0.0,0.0,78,0.00,CLR,,0.00,WeatherDisplay:10.37,2013-10-29 23:27:00,
2013-10-29 19:28:00,40.8,34.8,30.38,ENE,62,0.0,0.0,79,0.00,CLR,,0.00,WeatherDisplay:10.37,2013-10-29 23:28:00,
2013-10-29 19:29:00,40.8,34.8,30.38,ENE,62,0.0,0.0,79,0.00,CLR,,0.00,WeatherDisplay:10.37,2013-10-29 23:29:00,
2013-10-29 19:31:00,40.8,34.5,30.38,ENE,62,0.0,0.0,78,0.00,CLR,,0.00,WeatherDisplay:10.37,2013-10-29 23:31:00,
2013-10-29 19:32:00,40.8,34.5,30.38,ENE,62,0.0,0.0,78,0.00,CLR,,0.00,WeatherDisplay:10.37,2013-10-29 23:32:00,
2013-10-29 19:33:00,40.8,34.5,30.38,ENE,62,0.0,0.0,78,0.00,CLR,,0.00,WeatherDisplay:10.37,2013-10-29 23:33:00,
2013-10-29 19:34:00,40.8,34.5,30.38,ENE,62,0.0,0.0,78,0.00,CLR,,0.00,WeatherDisplay:10.37,2013-10-29 23:34:00,
2013-10-29 19:35:00,40.8,34.5,30.38,ENE,62,0.0,0.0,78,0.00,CLR,,0.00,WeatherDisplay:10.37,2013-10-29 23:35:00,
2013-10-29 19:36:00,40.8,34.8,30.38,ENE,62,0.0,0.0,79,0.00,CLR,,0.00,WeatherDisplay:10.37,2013-10-29 23:36:00,
2013-10-29 19:37:00,40.8,34.8,30.39,ENE,62,0.0,0.0,79,0.00,CLR,,0.00,WeatherDisplay:10.37,2013-10-29 23:37:00,
2013-10-29 19:39:00,40.8,34.5,30.38,ENE,62,0.0,0.0,78,0.00,CLR,,0.00,WeatherDisplay:10.37,2013-10-29 23:39:00,
2013-10-29 19:40:00,40.8,34.5,30.38,ENE,62,0.0,0.0,78,0.00,CLR,,0.00,WeatherDisplay:10.37,2013-10-29 23:40:00,
2013-10-29 19:41:00,40.9,34.6,30.38,ENE,62,0.0,0.0,78,0.00,CLR,,0.00,WeatherDisplay:10.37,2013-10-29 23:41:00,
2013-10-29 19:42:00,40.9,34.2,30.38,ENE,62,0.0,0.0,77,0.00,CLR,,0.00,WeatherDisplay:10.37,2013-10-29 23:42:00,
2013-10-29 19:44:00,41.1,34.4,30.39,ENE,62,0.0,0.0,77,0.00,CLR,,0.00,WeatherDisplay:10.37,2013-10-29 23:44:00,
2013-10-29 19:45:00,41.1,34.4,30.39,ENE,62,0.0,0.0,77,0.00,CLR,,0.00,WeatherDisplay:10.37,2013-10-29 23:45:00,
2013-10-29 19:46:00,41.2,34.2,30.38,ENE,61,0.0,0.0,76,0.00,CLR,,0.00,WeatherDisplay:10.37,2013-10-29 23:46:00,
2013-10-29 19:47:00,41.2,33.9,30.38,ENE,62,0.0,0.0,75,0.00,CLR,,0.00,WeatherDisplay:10.37,2013-10-29 23:47:00,
2013-10-29 19:49:00,41.5,33.8,30.38,ENE,62,0.0,0.0,74,0.00,CLR,,0.00,WeatherDisplay:10.37,2013-10-29 23:49:00,
2013-10-29 19:50:00,41.5,33.8,30.38,ENE,62,0.0,0.0,74,0.00,CLR,,0.00,WeatherDisplay:10.37,2013-10-29 23:50:00,
2013-10-29 19:51:00,41.6,33.9,30.38,ENE,62,0.0,0.0,74,0.00,CLR,,0.00,WeatherDisplay:10.37,2013-10-29 23:51:00,
2013-10-29 19:52:00,41.6,33.9,30.38,ENE,62,0.0,0.0,74,0.00,CLR,,0.00,WeatherDisplay:10.37,2013-10-29 23:52:00,
2013-10-29 19:54:00,41.8,34.1,30.38,ENE,62,0.0,0.0,74,0.00,CLR,,0.00,WeatherDisplay:10.37,2013-10-29 23:54:00,
2013-10-29 19:55:00,41.9,33.9,30.38,ENE,62,0.0,0.0,73,0.00,CLR,,0.00,WeatherDisplay:10.37,2013-10-29 23:55:00,
2013-10-29 19:56:00,41.9,33.9,30.38,ENE,62,0.0,0.0,73,0.00,CLR,,0.00,WeatherDisplay:10.37,2013-10-29 23:56:00,
2013-10-29 19:58:00,41.9,33.9,30.38,ENE,62,0.0,0.0,73,0.00,CLR,,0.00,WeatherDisplay:10.37,2013-10-29 23:58:00,
2013-10-29 20:00:00,42.1,34.4,30.38,ENE,62,0.0,0.0,74,0.00,CLR,,0.00,WeatherDisplay:10.37,2013-10-30 00:00:00,
2013-10-29 20:01:00,42.1,34.4,30.38,ENE,62,0.0,0.0,74,0.00,CLR,,0.00,WeatherDisplay:10.37,2013-10-30 00:01:00,
2013-10-29 20:02:00,42.1,34.7,30.38,ENE,62,0.0,0.0,75,0.00,CLR,,0.00,WeatherDisplay:10.37,2013-10-30 00:02:00,
2013-10-29 20:03:00,42.1,34.7,30.38,ENE,62,0.0,0.0,75,0.00,CLR,,0.00,WeatherDisplay:10.37,2013-10-30 00:03:00,
2013-10-29 20:05:00,42.1,35.1,30.37,ENE,62,0.0,0.0,76,0.00,CLR,,0.00,WeatherDisplay:10.37,2013-10-30 00:05:00,
2013-10-29 20:06:00,41.9,34.9,30.37,ENE,62,0.0,0.0,76,0.00,CLR,,0.00,WeatherDisplay:10.37,2013-10-30 00:06:00,
2013-10-29 20:07:00,41.9,34.9,30.37,ENE,62,0.0,0.0,76,0.00,CLR,,0.00,WeatherDisplay:10.37,2013-10-30 00:07:00,
2013-10-29 20:08:00,41.9,34.9,30.37,ENE,62,0.0,0.0,76,0.00,CLR,,0.00,WeatherDisplay:10.37,2013-10-30 00:08:00,
2013-10-29 20:10:00,41.8,35.1,30.37,ENE,62,0.0,0.0,77,0.00,CLR,,0.00,WeatherDisplay:10.37,2013-10-30 00:10:00,
2013-10-29 20:11:00,41.8,35.1,30.37,ENE,62,0.0,0.0,77,0.00,CLR,,0.00,WeatherDisplay:10.37,2013-10-30 00:11:00,
2013-10-29 20:12:00,41.6,35.2,30.37,ENE,61,0.0,0.0,78,0.00,CLR,,0.00,WeatherDisplay:10.37,2013-10-30 00:12:00,
2013-10-29 20:13:00,41.6,35.2,30.37,ENE,62,0.0,0.0,78,0.00,CLR,,0.00,WeatherDisplay:10.37,2013-10-30 00:13:00,
2013-10-29 20:15:00,41.6,35.2,30.37,ENE,62,0.0,0.0,78,0.00,CLR,,0.00,WeatherDisplay:10.37,2013-10-30 00:15:00,
2013-10-29 20:16:00,41.6,35.2,30.37,ENE,61,0.0,0.0,78,0.00,CLR,,0.00,WeatherDisplay:10.37,2013-10-30 00:16:00,
2013-10-29 20:17:00,41.6,35.2,30.37,ENE,61,0.0,0.0,78,0.00,CLR,,0.00,WeatherDisplay:10.37,2013-10-30 00:17:00,
2013-10-29 20:18:00,41.6,35.2,30.37,ENE,61,0.0,0.0,78,0.00,CLR,,0.00,WeatherDisplay:10.37,2013-10-30 00:18:00,
2013-10-29 20:21:00,41.5,35.2,30.37,ENE,62,0.0,0.0,78,0.00,CLR,,0.00,WeatherDisplay:10.37,2013-10-30 00:21:00,
2013-10-29 20:22:00,41.5,35.2,30.37,ENE,61,0.0,0.0,78,0.00,CLR,,0.00,WeatherDisplay:10.37,2013-10-30 00:22:00,
2013-10-29 20:23:00,41.6,34.9,30.37,ENE,62,0.0,0.0,77,0.00,CLR,,0.00,WeatherDisplay:10.37,2013-10-30 00:23:00,
2013-10-29 20:24:00,41.6,34.6,30.37,ENE,62,0.0,0.0,76,0.00,CLR,,0.00,WeatherDisplay:10.37,2013-10-30 00:24:00,
2013-10-29 20:26:00,41.9,34.2,30.37,ENE,62,0.0,0.0,74,0.00,CLR,,0.00,WeatherDisplay:10.37,2013-10-30 00:26:00,
2013-10-29 20:27:00,41.9,34.2,30.37,ENE,62,0.0,0.0,74,0.00,CLR,,0.00,WeatherDisplay:10.37,2013-10-30 00:27:00,
2013-10-29 20:28:00,42.1,34.1,30.37,ENE,62,0.0,0.0,73,0.00,CLR,,0.00,WeatherDisplay:10.37,2013-10-30 00:28:00,
2013-10-29 20:29:00,42.2,34.2,30.37,ENE,62,0.0,0.0,73,0.00,CLR,,0.00,WeatherDisplay:10.37,2013-10-30 00:29:00,
2013-10-29 20:32:00,42.5,34.1,30.37,East,89,0.0,0.0,72,0.00,CLR,,0.00,WeatherDisplay:10.37,2013-10-30 00:32:00,
2013-10-29 20:33:00,42.6,34.2,30.37,East,89,0.0,0.0,72,0.00,CLR,,0.00,WeatherDisplay:10.37,2013-10-30 00:33:00,
2013-10-29 20:34:00,42.6,34.2,30.37,East,89,0.0,0.0,72,0.00,CLR,,0.00,WeatherDisplay:10.37,2013-10-30 00:34:00,
2013-10-29 20:37:00,42.6,34.2,30.37,East,90,0.0,0.0,72,0.00,CLR,,0.00,WeatherDisplay:10.37,2013-10-30 00:37:00,
2013-10-29 20:38:00,42.6,34.5,30.37,East,90,0.0,0.0,73,0.00,CLR,,0.00,WeatherDisplay:10.37,2013-10-30 00:38:00,
2013-10-29 20:39:00,42.8,34.4,30.37,East,90,0.0,0.0,72,0.00,CLR,,0.00,WeatherDisplay:10.37,2013-10-30 00:39:00,
2013-10-29 20:42:00,42.8,34.4,30.36,ESE,109,0.0,0.0,72,0.00,CLR,,0.00,WeatherDisplay:10.37,2013-10-30 00:42:00,
2013-10-29 20:43:00,42.9,34.1,30.36,ESE,110,0.0,0.0,71,0.00,CLR,,0.00,WeatherDisplay:10.37,2013-10-30 00:43:00,
2013-10-29 20:44:00,42.9,34.1,30.36,ESE,110,0.0,0.0,71,0.00,CLR,,0.00,WeatherDisplay:10.37,2013-10-30 00:44:00,
2013-10-29 20:47:00,43.1,34.3,30.36,ESE,110,0.0,0.0,71,0.00,CLR,,0.00,WeatherDisplay:10.37,2013-10-30 00:47:00,
2013-10-29 20:48:00,43.1,34.3,30.36,ESE,110,0.0,0.0,71,0.00,CLR,,0.00,WeatherDisplay:10.37,2013-10-30 00:48:00,
2013-10-29 20:49:00,43.1,34.3,30.36,ESE,110,0.0,0.0,71,0.00,CLR,,0.00,WeatherDisplay:10.37,2013-10-30 00:49:00,
2013-10-29 20:50:00,43.1,34.0,30.36,ESE,110,0.0,0.0,70,0.00,CLR,,0.00,WeatherDisplay:10.37,2013-10-30 00:50:00,
2013-10-29 20:53:00,43.2,34.1,30.36,ESE,110,0.0,0.0,70,0.00,CLR,,0.00,WeatherDisplay:10.37,2013-10-30 00:53:00,
2013-10-29 20:54:00,43.3,33.8,30.37,ESE,110,0.0,0.0,69,0.00,CLR,,0.00,WeatherDisplay:10.37,2013-10-30 00:54:00,
2013-10-29 20:55:00,43.3,33.8,30.37,ESE,110,0.0,0.0,69,0.00,CLR,,0.00,WeatherDisplay:10.37,2013-10-30 00:55:00,
2013-10-29 20:58:00,43.6,33.7,30.36,ESE,116,0.0,0.0,68,0.00,CLR,,0.00,WeatherDisplay:10.37,2013-10-30 00:58:00,
2013-10-29 20:59:00,43.6,33.4,30.36,ESE,114,0.0,0.0,67,0.00,CLR,,0.00,WeatherDisplay:10.37,2013-10-30 00:59:00,
2013-10-29 21:00:00,43.8,33.6,30.36,ESE,114,0.0,0.0,67,0.00,CLR,,0.00,WeatherDisplay:10.37,2013-10-30 01:00:00,
2013-10-29 21:01:00,43.8,33.6,30.36,ESE,114,0.0,0.0,67,0.00,CLR,,0.00,WeatherDisplay:10.37,2013-10-30 01:01:00,
2013-10-29 21:03:00,43.8,33.6,30.35,ESE,114,0.0,0.0,67,0.00,CLR,,0.00,WeatherDisplay:10.37,2013-10-30 01:03:00,
2013-10-29 21:05:00,43.8,34.3,30.35,ESE,114,0.0,0.0,69,0.00,CLR,,0.00,WeatherDisplay:10.37,2013-10-30 01:05:00,
2013-10-29 21:06:00,43.8,34.6,30.35,ESE,114,0.0,0.0,70,0.00,CLR,,0.00,WeatherDisplay:10.37,2013-10-30 01:06:00,
2013-10-29 21:08:00,43.8,34.6,30.35,ESE,114,0.0,0.0,70,0.00,CLR,,0.00,WeatherDisplay:10.37,2013-10-30 01:08:00,
2013-10-29 21:09:00,43.8,34.6,30.35,ESE,114,0.0,0.0,70,0.00,CLR,,0.00,WeatherDisplay:10.37,2013-10-30 01:09:00,
2013-10-29 21:10:00,43.8,35.0,30.35,ESE,114,0.0,0.0,71,0.00,CLR,,0.00,WeatherDisplay:10.37,2013-10-30 01:10:00,
2013-10-29 21:11:00,43.6,35.2,30.35,ESE,114,0.0,0.0,72,0.00,CLR,,0.00,WeatherDisplay:10.37,2013-10-30 01:11:00,
2013-10-29 21:13:00,43.5,35.1,30.36,ESE,114,0.0,0.0,72,0.00,CLR,,0.00,WeatherDisplay:10.37,2013-10-30 01:13:00,
2013-10-29 21:14:00,43.5,35.4,30.36,ESE,114,0.0,0.0,73,0.00,CLR,,0.00,WeatherDisplay:10.37,2013-10-30 01:14:00,
2013-10-29 21:15:00,43.3,35.2,30.36,ESE,114,0.0,0.0,73,0.00,CLR,,0.00,WeatherDisplay:10.37,2013-10-30 01:15:00,
2013-10-29 21:16:00,43.2,35.1,30.36,ESE,114,0.0,0.0,73,0.00,CLR,,0.00,WeatherDisplay:10.37,2013-10-30 01:16:00,
2013-10-29 21:17:00,43.2,35.1,30.36,ESE,114,0.0,0.0,73,0.00,CLR,,0.00,WeatherDisplay:10.37,2013-10-30 01:17:00,
2013-10-29 21:18:00,43.1,35.4,30.36,ESE,114,0.0,0.0,74,0.00,CLR,,0.00,WeatherDisplay:10.37,2013-10-30 01:18:00,
2013-10-29 21:19:00,43.1,35.0,30.36,ESE,114,0.0,0.0,73,0.00,CLR,,0.00,WeatherDisplay:10.37,2013-10-30 01:19:00,
2013-10-29 21:20:00,43.1,35.0,30.35,ESE,114,0.0,0.0,73,0.00,CLR,,0.00,WeatherDisplay:10.37,2013-10-30 01:20:00,
2013-10-29 21:21:00,43.1,35.0,30.35,ESE,114,0.0,0.0,73,0.00,CLR,,0.00,WeatherDisplay:10.37,2013-10-30 01:21:00,
2013-10-29 21:22:00,42.9,34.8,30.35,ESE,114,0.0,0.0,73,0.00,CLR,,0.00,WeatherDisplay:10.37,2013-10-30 01:22:00,
2013-10-29 21:24:00,42.9,35.2,30.35,ESE,114,0.0,0.0,74,0.00,CLR,,0.00,WeatherDisplay:10.37,2013-10-30 01:24:00,
2013-10-29 21:25:00,42.8,35.1,30.35,ESE,114,0.0,0.0,74,0.00,CLR,,0.00,WeatherDisplay:10.37,2013-10-30 01:25:00,
2013-10-29 21:27:00,42.8,35.1,30.35,ESE,114,0.0,0.0,74,0.00,CLR,,0.00,WeatherDisplay:10.37,2013-10-30 01:27:00,
2013-10-29 21:29:00,42.6,34.9,30.35,ESE,114,0.0,0.0,74,0.00,CLR,,0.00,WeatherDisplay:10.37,2013-10-30 01:29:00,
2013-10-29 21:30:00,42.6,34.9,30.35,ESE,114,0.0,0.0,74,0.00,CLR,,0.00,WeatherDisplay:10.37,2013-10-30 01:30:00,
2013-10-29 21:32:00,42.6,35.2,30.35,ESE,114,0.0,0.0,75,0.00,CLR,,0.00,WeatherDisplay:10.37,2013-10-30 01:32:00,
2013-10-29 21:34:00,42.6,35.2,30.35,ESE,114,0.0,0.0,75,0.00,CLR,,0.00,WeatherDisplay:10.37,2013-10-30 01:34:00,
2013-10-29 21:35:00,42.6,35.2,30.35,ESE,114,0.0,0.0,75,0.00,CLR,,0.00,WeatherDisplay:10.37,2013-10-30 01:35:00,
2013-10-29 21:37:00,42.6,35.2,30.35,ESE,114,0.0,0.0,75,0.00,CLR,,0.00,WeatherDisplay:10.37,2013-10-30 01:37:00,
2013-10-29 21:38:00,42.6,35.6,30.35,ESE,114,0.0,0.0,76,0.00,CLR,,0.00,WeatherDisplay:10.37,2013-10-30 01:38:00,
2013-10-29 21:39:00,42.5,35.5,30.36,ESE,114,0.0,0.0,76,0.00,CLR,,0.00,WeatherDisplay:10.37,2013-10-30 01:39:00,
2013-10-29 21:40:00,42.5,35.5,30.36,ESE,114,0.0,0.0,76,0.00,CLR,,0.00,WeatherDisplay:10.37,2013-10-30 01:40:00,
2013-10-29 21:41:00,42.5,35.5,30.36,ESE,114,0.0,0.0,76,0.00,CLR,,0.00,WeatherDisplay:10.37,2013-10-30 01:41:00,
2013-10-29 21:42:00,42.5,35.5,30.36,ESE,114,0.0,0.0,76,0.00,CLR,,0.00,WeatherDisplay:10.37,2013-10-30 01:42:00,
2013-10-29 21:43:00,42.5,35.5,30.36,ESE,114,0.0,0.0,76,0.00,CLR,,0.00,WeatherDisplay:10.37,2013-10-30 01:43:00,
2013-10-29 21:45:00,42.5,35.5,30.36,ESE,114,0.0,0.0,76,0.00,CLR,,0.00,WeatherDisplay:10.37,2013-10-30 01:45:00,
2013-10-29 21:46:00,42.5,35.5,30.36,ESE,114,0.0,0.0,76,0.00,CLR,,0.00,WeatherDisplay:10.37,2013-10-30 01:46:00,
2013-10-29 21:47:00,42.5,35.5,30.36,ESE,114,0.0,0.0,76,0.00,CLR,,0.00,WeatherDisplay:10.37,2013-10-30 01:47:00,
2013-10-29 21:48:00,42.5,35.5,30.36,ESE,114,0.0,0.0,76,0.00,CLR,,0.00,WeatherDisplay:10.37,2013-10-30 01:48:00,
2013-10-29 21:50:00,42.5,35.5,30.35,ESE,114,0.0,0.0,76,0.00,CLR,,0.00,WeatherDisplay:10.37,2013-10-30 01:50:00,
2013-10-29 21:52:00,42.5,35.5,30.35,ESE,114,0.0,0.0,76,0.00,CLR,,0.00,WeatherDisplay:10.37,2013-10-30 01:52:00,
2013-10-29 21:53:00,42.5,35.5,30.35,ESE,114,0.0,0.0,76,0.00,CLR,,0.00,WeatherDisplay:10.37,2013-10-30 01:53:00,
2013-10-29 21:55:00,42.5,35.1,30.35,ESE,114,0.0,0.0,75,0.00,CLR,,0.00,WeatherDisplay:10.37,2013-10-30 01:55:00,
2013-10-29 21:57:00,42.5,34.5,30.35,ESE,114,0.0,0.0,73,0.00,CLR,,0.00,WeatherDisplay:10.37,2013-10-30 01:57:00,
2013-10-29 21:58:00,42.6,34.5,30.35,ESE,114,0.0,0.0,73,0.00,CLR,,0.00,WeatherDisplay:10.37,2013-10-30 01:58:00,
2013-10-29 22:00:00,42.8,34.4,30.35,ESE,114,0.0,0.0,72,0.00,CLR,,0.00,WeatherDisplay:10.37,2013-10-30 02:00:00,
2013-10-29 22:01:00,42.8,34.4,30.34,ESE,114,0.0,0.0,72,0.00,CLR,,0.00,WeatherDisplay:10.37,2013-10-30 02:01:00,
2013-10-29 22:03:00,42.9,34.5,30.34,ESE,114,0.0,0.0,72,0.00,CLR,,0.00,WeatherDisplay:10.37,2013-10-30 02:03:00,
2013-10-29 22:04:00,42.9,34.5,30.34,ESE,123,5.0,5.0,72,0.00,CLR,,0.00,WeatherDisplay:10.37,2013-10-30 02:04:00,
2013-10-29 22:05:00,42.9,34.5,30.34,ESE,123,4.6,0.0,72,0.00,CLR,,0.00,WeatherDisplay:10.37,2013-10-30 02:05:00,
2013-10-29 22:06:00,43.1,34.7,30.34,ESE,123,0.0,0.0,72,0.00,CLR,,0.00,WeatherDisplay:10.37,2013-10-30 02:06:00,
2013-10-29 22:08:00,43.1,34.3,30.34,SE,124,1.1,1.1,71,0.00,CLR,,0.00,WeatherDisplay:10.37,2013-10-30 02:08:00,
2013-10-29 22:09:00,43.1,34.3,30.34,ESE,123,1.1,0.0,71,0.00,CLR,,0.00,WeatherDisplay:10.37,2013-10-30 02:09:00,
2013-10-29 22:11:00,43.2,34.4,30.34,SE,131,0.0,0.3,71,0.00,CLR,,0.00,WeatherDisplay:10.37,2013-10-30 02:11:00,
2013-10-29 22:13:00,43.3,34.2,30.34,SE,141,0.0,0.0,70,0.00,CLR,,0.00,WeatherDisplay:10.37,2013-10-30 02:13:00,
2013-10-29 22:14:00,43.3,33.8,30.34,SE,141,3.0,3.0,69,0.00,CLR,,0.00,WeatherDisplay:10.37,2013-10-30 02:14:00,
2013-10-29 22:16:00,43.5,33.6,30.33,SSE,147,0.0,0.0,68,0.00,CLR,,0.00,WeatherDisplay:10.37,2013-10-30 02:16:00,
2013-10-29 22:19:00,43.6,33.4,30.33,SSE,155,4.6,4.6,67,0.00,CLR,,0.00,WeatherDisplay:10.37,2013-10-30 02:19:00,
2013-10-29 22:21:00,43.8,33.6,30.33,SSE,158,2.0,0.0,67,0.00,CLR,,0.00,WeatherDisplay:10.37,2013-10-30 02:21:00,
2013-10-29 22:22:00,43.9,33.6,30.33,SSE,155,2.3,2.3,67,0.00,CLR,,0.00,WeatherDisplay:10.37,2013-10-30 02:22:00,
2013-10-29 22:24:00,43.9,33.3,30.33,SE,133,4.6,0.0,66,0.00,CLR,,0.00,WeatherDisplay:10.37,2013-10-30 02:24:00,
2013-10-29 22:25:00,44.1,33.5,30.33,SE,131,4.6,4.6,66,0.00,CLR,,0.00,WeatherDisplay:10.37,2013-10-30 02:25:00,
2013-10-29 22:26:00,44.1,33.5,30.33,SE,144,5.8,5.8,66,0.00,CLR,,0.00,WeatherDisplay:10.37,2013-10-30 02:26:00,
2013-10-29 22:27:00,44.2,33.2,30.33,SE,144,0.0,0.0,65,0.00,CLR,,0.00,WeatherDisplay:10.37,2013-10-30 02:27:00,
2013-10-29 22:29:00,44.2,33.6,30.33,SE,143,0.0,0.1,66,0.00,CLR,,0.00,WeatherDisplay:10.37,2013-10-30 02:29:00,
2013-10-29 22:30:00,44.2,33.2,30.33,SSE,161,2.3,2.3,65,0.00,CLR,,0.00,WeatherDisplay:10.37,2013-10-30 02:30:00,
2013-10-29 22:31:00,44.2,33.2,30.33,SSE,155,2.3,0.0,65,0.00,CLR,,0.00,WeatherDisplay:10.37,2013-10-30 02:31:00,
2013-10-29 22:33:00,44.2,33.2,30.33,SSE,154,0.0,0.0,65,0.00,CLR,,0.00,WeatherDisplay:10.37,2013-10-30 02:33:00,
2013-10-29 22:35:00,44.3,33.3,30.33,SSE,154,6.9,6.9,65,0.00,CLR,,0.00,WeatherDisplay:10.37,2013-10-30 02:35:00,
2013-10-29 22:37:00,44.3,33.3,30.33,SSE,151,2.3,0.0,65,0.00,CLR,,0.00,WeatherDisplay:10.37,2013-10-30 02:37:00,
2013-10-29 22:38:00,44.3,33.3,30.33,SSE,151,5.8,5.8,65,0.00,CLR,,0.00,WeatherDisplay:10.37,2013-10-30 02:38:00,
2013-10-29 22:40:00,44.3,33.3,30.33,SSE,151,0.0,0.0,65,0.00,CLR,,0.00,WeatherDisplay:10.37,2013-10-30 02:40:00,
2013-10-29 22:42:00,44.3,33.3,30.33,SSE,158,0.0,0.0,65,0.00,CLR,,0.00,WeatherDisplay:10.37,2013-10-30 02:42:00,
2013-10-29 22:43:00,44.3,33.3,30.33,SSE,158,0.0,0.0,65,0.00,CLR,,0.00,WeatherDisplay:10.37,2013-10-30 02:43:00,
2013-10-29 22:44:00,44.3,33.3,30.33,SSE,158,0.0,0.0,65,0.00,CLR,,0.00,WeatherDisplay:10.37,2013-10-30 02:44:00,
2013-10-29 22:45:00,44.3,33.3,30.33,SSE,161,2.3,2.3,65,0.00,CLR,,0.00,WeatherDisplay:10.37,2013-10-30 02:45:00,
2013-10-29 22:46:00,44.3,33.3,30.33,SE,144,6.0,6.0,65,0.00,CLR,,0.00,WeatherDisplay:10.37,2013-10-30 02:46:00,
2013-10-29 22:47:00,44.3,33.3,30.33,SE,144,8.1,8.1,65,0.00,CLR,,0.00,WeatherDisplay:10.37,2013-10-30 02:47:00,
2013-10-29 22:48:00,44.3,33.3,30.33,SE,145,0.0,0.0,65,0.00,CLR,,0.00,WeatherDisplay:10.37,2013-10-30 02:48:00,
2013-10-29 22:49:00,44.3,33.3,30.33,SSE,155,1.0,0.0,65,0.00,CLR,,0.00,WeatherDisplay:10.37,2013-10-30 02:49:00,
2013-10-29 22:50:00,44.3,33.3,30.33,SE,137,6.9,6.9,65,0.00,CLR,,0.00,WeatherDisplay:10.37,2013-10-30 02:50:00,
2013-10-29 22:51:00,44.3,33.3,30.33,SE,145,4.6,4.6,65,0.00,CLR,,0.00,WeatherDisplay:10.37,2013-10-30 02:51:00,
2013-10-29 22:52:00,44.3,33.3,30.33,SE,140,5.8,5.8,65,0.00,CLR,,0.00,WeatherDisplay:10.37,2013-10-30 02:52:00,
2013-10-29 22:53:00,44.3,33.3,30.33,SE,141,3.5,3.5,65,0.00,CLR,,0.00,WeatherDisplay:10.37,2013-10-30 02:53:00,
2013-10-29 22:54:00,44.2,33.2,30.33,SSE,148,2.3,2.3,65,0.00,CLR,,0.00,WeatherDisplay:10.37,2013-10-30 02:54:00,
2013-10-29 22:55:00,44.2,33.2,30.33,SE,127,2.3,2.3,65,0.00,CLR,,0.00,WeatherDisplay:10.37,2013-10-30 02:55:00,
2013-10-29 22:56:00,44.2,33.2,30.32,SSE,147,10.4,10.4,65,0.00,CLR,,0.00,WeatherDisplay:10.37,2013-10-30 02:56:00,
2013-10-29 22:57:00,44.2,33.2,30.32,SSE,148,6.9,6.9,65,0.00,CLR,,0.00,WeatherDisplay:10.37,2013-10-30 02:57:00,
2013-10-29 22:58:00,44.2,33.2,30.32,SSE,168,4.6,4.6,65,0.00,CLR,,0.00,WeatherDisplay:10.37,2013-10-30 02:58:00,
2013-10-29 22:59:00,44.2,33.2,30.32,SSE,160,3.5,3.5,65,0.00,CLR,,0.00,WeatherDisplay:10.37,2013-10-30 02:59:00,
2013-10-29 23:01:00,44.2,33.2,30.32,SE,145,5.8,5.8,65,0.00,CLR,,0.00,WeatherDisplay:10.37,2013-10-30 03:01:00,
2013-10-29 23:02:00,44.2,33.2,30.32,SSE,160,5.0,5.0,65,0.00,CLR,,0.00,WeatherDisplay:10.37,2013-10-30 03:02:00,
2013-10-29 23:03:00,44.2,33.2,30.32,SSE,151,6.9,6.9,65,0.00,CLR,,0.00,WeatherDisplay:10.37,2013-10-30 03:03:00,
2013-10-29 23:05:00,44.2,33.2,30.31,SSE,161,6.9,6.9,65,0.00,CLR,,0.00,WeatherDisplay:10.37,2013-10-30 03:05:00,
2013-10-29 23:06:00,44.2,33.2,30.31,South,185,0.0,0.0,65,0.00,CLR,,0.00,WeatherDisplay:10.37,2013-10-30 03:06:00,
2013-10-29 23:07:00,44.1,33.1,30.31,SSE,165,3.5,3.5,65,0.00,CLR,,0.00,WeatherDisplay:10.37,2013-10-30 03:07:00,
2013-10-29 23:08:00,44.1,33.1,30.31,SSE,148,8.1,8.1,65,0.00,CLR,,0.00,WeatherDisplay:10.37,2013-10-30 03:08:00,
2013-10-29 23:10:00,44.1,33.1,30.31,SSE,147,5.8,5.8,65,0.00,CLR,,0.00,WeatherDisplay:10.37,2013-10-30 03:10:00,
2013-10-29 23:11:00,44.1,33.1,30.31,SSE,152,1.1,1.1,65,0.00,CLR,,0.00,WeatherDisplay:10.37,2013-10-30 03:11:00,
2013-10-29 23:12:00,44.1,33.1,30.31,SE,133,5.0,5.0,65,0.00,CLR,,0.00,WeatherDisplay:10.37,2013-10-30 03:12:00,
2013-10-29 23:13:00,44.1,33.1,30.31,SE,141,6.9,6.9,65,0.00,CLR,,0.00,WeatherDisplay:10.37,2013-10-30 03:13:00,
2013-10-29 23:15:00,44.1,33.1,30.31,SSE,164,3.5,3.5,65,0.00,CLR,,0.00,WeatherDisplay:10.37,2013-10-30 03:15:00,
2013-10-29 23:16:00,44.1,33.1,30.31,SSE,164,0.0,0.0,65,0.00,CLR,,0.00,WeatherDisplay:10.37,2013-10-30 03:16:00,
2013-10-29 23:17:00,44.1,32.7,30.31,SSW,206,4.6,4.6,64,0.00,CLR,,0.00,WeatherDisplay:10.37,2013-10-30 03:17:00,
2013-10-29 23:18:00,44.1,32.7,30.31,SSE,160,11.5,11.5,64,0.00,CLR,,0.00,WeatherDisplay:10.37,2013-10-30 03:18:00,
2013-10-29 23:20:00,44.2,32.8,30.31,ESE,116,6.0,6.0,64,0.00,CLR,,0.00,WeatherDisplay:10.37,2013-10-30 03:20:00,
2013-10-29 23:21:00,44.2,32.8,30.31,SSE,157,5.8,5.8,64,0.00,CLR,,0.00,WeatherDisplay:10.37,2013-10-30 03:21:00,
2013-10-29 23:23:00,44.2,32.8,30.31,SSE,157,3.5,3.5,64,0.00,CLR,,0.00,WeatherDisplay:10.37,2013-10-30 03:23:00,
2013-10-29 23:25:00,44.2,32.8,30.31,SSE,161,8.1,8.1,64,0.00,CLR,,0.00,WeatherDisplay:10.37,2013-10-30 03:25:00,
2013-10-29 23:26:00,44.2,32.8,30.31,South,188,6.9,6.9,64,0.00,CLR,,0.00,WeatherDisplay:10.37,2013-10-30 03:26:00,
2013-10-29 23:27:00,44.2,32.8,30.31,SE,143,4.6,4.6,64,0.00,CLR,,0.00,WeatherDisplay:10.37,2013-10-30 03:27:00,
2013-10-29 23:28:00,44.2,32.8,30.31,SSE,147,9.0,9.0,64,0.00,CLR,,0.00,WeatherDisplay:10.37,2013-10-30 03:28:00,
2013-10-29 23:31:00,44.2,32.8,30.31,SE,140,11.5,11.5,64,0.00,CLR,,0.00,WeatherDisplay:10.37,2013-10-30 03:31:00,
2013-10-29 23:32:00,44.3,32.5,30.30,SE,145,6.9,6.9,63,0.00,CLR,,0.00,WeatherDisplay:10.37,2013-10-30 03:32:00,
2013-10-29 23:33:00,44.3,32.9,30.30,SSE,157,5.8,5.8,64,0.00,CLR,,0.00,WeatherDisplay:10.37,2013-10-30 03:33:00,
2013-10-29 23:34:00,44.3,32.9,30.30,SE,141,7.0,7.0,64,0.00,CLR,,0.00,WeatherDisplay:10.37,2013-10-30 03:34:00,
2013-10-29 23:36:00,44.2,32.8,30.30,SSE,168,8.1,8.1,64,0.00,CLR,,0.00,WeatherDisplay:10.37,2013-10-30 03:36:00,
2013-10-29 23:37:00,44.2,32.8,30.30,SE,133,7.0,7.0,64,0.00,CLR,,0.00,WeatherDisplay:10.37,2013-10-30 03:37:00,
2013-10-29 23:39:00,44.2,32.8,30.30,SE,144,6.9,6.9,64,0.00,CLR,,0.00,WeatherDisplay:10.37,2013-10-30 03:39:00,
2013-10-29 23:41:00,44.2,32.8,30.30,SSE,152,4.6,4.6,64,0.00,CLR,,0.00,WeatherDisplay:10.37,2013-10-30 03:41:00,
2013-10-29 23:42:00,44.2,32.8,30.30,SE,138,4.6,4.6,64,0.00,CLR,,0.00,WeatherDisplay:10.37,2013-10-30 03:42:00,
2013-10-29 23:43:00,44.2,32.8,30.30,SSE,168,6.9,6.9,64,0.00,CLR,,0.00,WeatherDisplay:10.37,2013-10-30 03:43:00,
2013-10-29 23:44:00,44.2,32.8,30.30,SE,136,6.9,6.9,64,0.00,CLR,,0.00,WeatherDisplay:10.37,2013-10-30 03:44:00,
2013-10-29 23:46:00,44.1,32.7,30.30,SE,145,5.8,5.8,64,0.00,CLR,,0.00,WeatherDisplay:10.37,2013-10-30 03:46:00,
2013-10-29 23:47:00,44.1,32.7,30.30,SSE,152,8.0,8.0,64,0.00,CLR,,0.00,WeatherDisplay:10.37,2013-10-30 03:47:00,
2013-10-29 23:48:00,44.1,32.7,30.30,South,181,10.4,10.4,64,0.00,CLR,,0.00,WeatherDisplay:10.37,2013-10-30 03:48:00,
2013-10-29 23:49:00,44.1,32.7,30.30,South,186,9.2,9.2,64,0.00,CLR,,0.00,WeatherDisplay:10.37,2013-10-30 03:49:00,
2013-10-29 23:51:00,44.1,32.7,30.30,SSE,151,5.8,5.8,64,0.00,CLR,,0.00,WeatherDisplay:10.37,2013-10-30 03:51:00,
2013-10-29 23:53:00,43.9,32.5,30.30,SE,138,8.1,8.1,64,0.00,CLR,,0.00,WeatherDisplay:10.37,2013-10-30 03:53:00,
2013-10-29 23:54:00,43.9,32.5,30.30,SSE,160,5.8,5.8,64,0.00,CLR,,0.00,WeatherDisplay:10.37,2013-10-30 03:54:00,
2013-10-29 23:55:00,43.9,32.5,30.30,SSE,164,5.8,5.8,64,0.00,CLR,,0.00,WeatherDisplay:10.37,2013-10-30 03:55:00,
2013-10-29 23:56:00,43.9,32.5,30.30,SE,141,11.5,11.5,64,0.00,CLR,,0.00,WeatherDisplay:10.37,2013-10-30 03:56:00,
2013-10-29 23:58:00,43.9,32.5,30.30,SSE,158,8.1,8.1,64,0.00,CLR,,0.00,WeatherDisplay:10.37,2013-10-30 03:58:00,
2013-10-29 23:59:00,43.9,32.5,30.30,SSE,168,10.4,10.4,64,0.00,CLR,,0.00,WeatherDisplay:10.37,2013-10-30 03:59:00,